AUA8 VTBS-LOWW
Flight info
| Callsign | AUA8 |
|---|---|
| Flight time | 10h 45m |
| Altitude | 34000 |
| Route | TARED1E TARED G463 BETNO N895 PTN P646 DOPID Z12 JJS P646 BBN R460 LKN/N0484F360 M890 SULOM A466 DI N644 LEMOD A909 ABEKO/N0475F380 A909 RODAR N644 ADEKI DCT BADIR DCT LAGAS DCT FOQUS DCT SARPI UM10 GOKPA UL746 ODERO DCT OPT DCT IRLOX DCT BALUX DCT TORNO DCT NATEX NATEX2W |
| Aircraft | B772/H-SDE1E2E3FGHIJ3J5M1P2RWXYZ/LB1D1 |
Departure
| Time | 2026-04-23 22:02 |
|---|---|
| Airport | Suvarnabhumi Airport (VTBS) |
Arrival
| Time | 2026-04-24 08:47 |
|---|---|
| Airport | Vienna International Airport (LOWW) |
| Time | Latitude | Longitude | Altitude | Speed | Heading |
|---|---|---|---|---|---|
| 2026-04-23 21:46 | 13.68160 | 100.74586 | 19 ft | 4 kts | 3° |
| 2026-04-23 21:46 | 13.68151 | 100.74586 | 20 ft | 0 kts | 3° |
| 2026-04-23 21:47 | 13.68186 | 100.74592 | 17 ft | 0 kts | 14° |
| 2026-04-23 21:49 | 13.68180 | 100.74590 | 19 ft | 4 kts | 13° |
| 2026-04-23 21:50 | 13.68154 | 100.74586 | 20 ft | 4 kts | 0° |
| 2026-04-23 21:50 | 13.68127 | 100.74589 | 20 ft | 4 kts | 343° |
| 2026-04-23 21:50 | 13.68103 | 100.74600 | 20 ft | 4 kts | 321° |
| 2026-04-23 21:50 | 13.68086 | 100.74620 | 21 ft | 4 kts | 292° |
| 2026-04-23 21:51 | 13.68083 | 100.74629 | 17 ft | 0 kts | 284° |
| 2026-04-23 21:53 | 13.68089 | 100.74605 | 19 ft | 6 kts | 284° |
| 2026-04-23 21:54 | 13.68102 | 100.74550 | 17 ft | 9 kts | 284° |
| 2026-04-23 21:54 | 13.68120 | 100.74479 | 17 ft | 12 kts | 284° |
| 2026-04-23 21:54 | 13.68141 | 100.74395 | 17 ft | 12 kts | 285° |
| 2026-04-23 21:54 | 13.68163 | 100.74310 | 17 ft | 12 kts | 284° |
| 2026-04-23 21:55 | 13.68184 | 100.74225 | 17 ft | 12 kts | 284° |
| 2026-04-23 21:55 | 13.68205 | 100.74141 | 17 ft | 12 kts | 284° |
| 2026-04-23 21:55 | 13.68244 | 100.74067 | 18 ft | 12 kts | 327° |
| 2026-04-23 21:55 | 13.68328 | 100.74072 | 18 ft | 15 kts | 15° |
| 2026-04-23 21:56 | 13.68443 | 100.74106 | 18 ft | 17 kts | 17° |
| 2026-04-23 21:56 | 13.68559 | 100.74139 | 18 ft | 17 kts | 13° |
| 2026-04-23 21:56 | 13.68677 | 100.74167 | 18 ft | 17 kts | 13° |
| 2026-04-23 21:56 | 13.68795 | 100.74198 | 18 ft | 17 kts | 15° |
| 2026-04-23 21:57 | 13.68912 | 100.74229 | 18 ft | 17 kts | 14° |
| 2026-04-23 21:57 | 13.69029 | 100.74260 | 18 ft | 17 kts | 14° |
| 2026-04-23 21:57 | 13.69147 | 100.74291 | 17 ft | 17 kts | 14° |
| 2026-04-23 21:57 | 13.69263 | 100.74321 | 17 ft | 17 kts | 13° |
| 2026-04-23 21:58 | 13.69380 | 100.74351 | 17 ft | 17 kts | 14° |
| 2026-04-23 21:58 | 13.69497 | 100.74382 | 17 ft | 17 kts | 14° |
| 2026-04-23 21:58 | 13.69614 | 100.74414 | 17 ft | 17 kts | 14° |
| 2026-04-23 21:58 | 13.69732 | 100.74445 | 17 ft | 17 kts | 14° |
| 2026-04-23 21:59 | 13.69849 | 100.74474 | 17 ft | 17 kts | 14° |
| 2026-04-23 21:59 | 13.69966 | 100.74506 | 17 ft | 17 kts | 14° |
| 2026-04-23 21:59 | 13.70073 | 100.74534 | 17 ft | 14 kts | 14° |
| 2026-04-23 22:00 | 13.70242 | 100.74578 | 18 ft | 9 kts | 13° |
| 2026-04-23 22:00 | 13.70298 | 100.74560 | 18 ft | 9 kts | 309° |
| 2026-04-23 22:00 | 13.70321 | 100.74500 | 18 ft | 9 kts | 287° |
| 2026-04-23 22:00 | 13.70337 | 100.74438 | 18 ft | 9 kts | 284° |
| 2026-04-23 22:01 | 13.70348 | 100.74376 | 19 ft | 9 kts | 272° |
| 2026-04-23 22:01 | 13.70328 | 100.74318 | 19 ft | 9 kts | 228° |
| 2026-04-23 22:01 | 13.70259 | 100.74290 | 19 ft | 18 kts | 194° |
| 2026-04-23 22:01 | 13.69971 | 100.74215 | 17 ft | 80 kts | 194° |
| 2026-04-23 22:02 | 13.69181 | 100.74007 | 17 ft | 152 kts | 194° |
| 2026-04-23 22:02 | 13.67994 | 100.73692 | 295 ft | 188 kts | 194° |
| 2026-04-23 22:02 | 13.66719 | 100.73352 | 1137 ft | 190 kts | 194° |
| 2026-04-23 22:02 | 13.65461 | 100.73022 | 2182 ft | 184 kts | 194° |
| 2026-04-23 22:03 | 13.64232 | 100.72702 | 2793 ft | 186 kts | 195° |
| 2026-04-23 22:03 | 13.62961 | 100.72369 | 3271 ft | 194 kts | 195° |
| 2026-04-23 22:03 | 13.61577 | 100.72006 | 3431 ft | 215 kts | 195° |
| 2026-04-23 22:03 | 13.60057 | 100.71607 | 3611 ft | 236 kts | 195° |
| 2026-04-23 22:04 | 13.58400 | 100.71171 | 3886 ft | 252 kts | 195° |
| 2026-04-23 22:04 | 13.56693 | 100.70723 | 4232 ft | 261 kts | 194° |
| 2026-04-23 22:04 | 13.55003 | 100.70039 | 4490 ft | 264 kts | 216° |
| 2026-04-23 22:04 | 13.53802 | 100.68616 | 4811 ft | 267 kts | 243° |
| 2026-04-23 22:05 | 13.53299 | 100.66779 | 5184 ft | 271 kts | 265° |
| 2026-04-23 22:05 | 13.53526 | 100.64875 | 5589 ft | 272 kts | 284° |
| 2026-04-23 22:05 | 13.54048 | 100.62975 | 6026 ft | 280 kts | 283° |
| 2026-04-23 22:05 | 13.54553 | 100.61020 | 6439 ft | 285 kts | 283° |
| 2026-04-23 22:06 | 13.55237 | 100.59135 | 6800 ft | 287 kts | 303° |
| 2026-04-23 22:06 | 13.56704 | 100.57745 | 7185 ft | 291 kts | 334° |
| 2026-04-23 22:06 | 13.58660 | 100.57226 | 7632 ft | 292 kts | 359° |
| 2026-04-23 22:06 | 13.60689 | 100.57270 | 8096 ft | 292 kts | 1° |
| 2026-04-23 22:07 | 13.62741 | 100.57320 | 8584 ft | 297 kts | 1° |
| 2026-04-23 22:07 | 13.64817 | 100.57362 | 9180 ft | 298 kts | 1° |
| 2026-04-23 22:07 | 13.66875 | 100.57407 | 9766 ft | 300 kts | 2° |
| 2026-04-23 22:07 | 13.68967 | 100.57482 | 10236 ft | 305 kts | 2° |
| 2026-04-23 22:08 | 13.71172 | 100.57566 | 10390 ft | 323 kts | 2° |
| 2026-04-23 22:08 | 13.73458 | 100.57648 | 10526 ft | 340 kts | 2° |
| 2026-04-23 22:08 | 13.75886 | 100.57732 | 10654 ft | 357 kts | 1° |
| 2026-04-23 22:08 | 13.78375 | 100.57443 | 10708 ft | 371 kts | 340° |
| 2026-04-23 22:09 | 13.80668 | 100.56158 | 10839 ft | 380 kts | 326° |
| 2026-04-23 22:09 | 13.82913 | 100.54640 | 11217 ft | 390 kts | 327° |
| 2026-04-23 22:09 | 13.85227 | 100.53157 | 11793 ft | 394 kts | 328° |
| 2026-04-23 22:09 | 13.87574 | 100.51680 | 12407 ft | 397 kts | 328° |
| 2026-04-23 22:10 | 13.89946 | 100.50190 | 12961 ft | 400 kts | 328° |
| 2026-04-23 22:10 | 13.92234 | 100.48629 | 13401 ft | 399 kts | 319° |
| 2026-04-23 22:10 | 13.93962 | 100.46384 | 13747 ft | 404 kts | 296° |
| 2026-04-23 22:10 | 13.94860 | 100.43646 | 14195 ft | 405 kts | 279° |
| 2026-04-23 22:11 | 13.95253 | 100.40779 | 14577 ft | 407 kts | 277° |
| 2026-04-23 22:11 | 13.95626 | 100.37862 | 14988 ft | 411 kts | 277° |
| 2026-04-23 22:11 | 13.96010 | 100.34938 | 15446 ft | 413 kts | 278° |
| 2026-04-23 22:11 | 13.96409 | 100.32005 | 15928 ft | 415 kts | 278° |
| 2026-04-23 22:12 | 13.96819 | 100.29083 | 16343 ft | 417 kts | 279° |
| 2026-04-23 22:12 | 13.97241 | 100.26117 | 16747 ft | 418 kts | 280° |
| 2026-04-23 22:12 | 13.98004 | 100.23234 | 16930 ft | 422 kts | 297° |
| 2026-04-23 22:12 | 13.99593 | 100.20708 | 17149 ft | 420 kts | 307° |
| 2026-04-23 22:13 | 14.01306 | 100.18255 | 17546 ft | 421 kts | 305° |
| 2026-04-23 22:13 | 14.02973 | 100.15765 | 18046 ft | 422 kts | 304° |
| 2026-04-23 22:13 | 14.04595 | 100.13289 | 18387 ft | 424 kts | 304° |
| 2026-04-23 22:13 | 14.06240 | 100.10753 | 18706 ft | 426 kts | 304° |
| 2026-04-23 22:14 | 14.07889 | 100.08201 | 19029 ft | 428 kts | 304° |
| 2026-04-23 22:14 | 14.09546 | 100.05636 | 19361 ft | 430 kts | 304° |
| 2026-04-23 22:14 | 14.11213 | 100.03058 | 19653 ft | 432 kts | 304° |
| 2026-04-23 22:14 | 14.12885 | 100.00472 | 19956 ft | 435 kts | 304° |
| 2026-04-23 22:15 | 14.14545 | 99.97905 | 20264 ft | 437 kts | 304° |
| 2026-04-23 22:15 | 14.16231 | 99.95296 | 20588 ft | 438 kts | 304° |
| 2026-04-23 22:15 | 14.17931 | 99.92668 | 20850 ft | 441 kts | 304° |
| 2026-04-23 22:15 | 14.19640 | 99.90026 | 21141 ft | 443 kts | 304° |
| 2026-04-23 22:16 | 14.21354 | 99.87380 | 21437 ft | 445 kts | 304° |
| 2026-04-23 22:16 | 14.23085 | 99.84709 | 21735 ft | 447 kts | 304° |
| 2026-04-23 22:16 | 14.24791 | 99.82077 | 22039 ft | 449 kts | 304° |
| 2026-04-23 22:16 | 14.26530 | 99.79391 | 22265 ft | 452 kts | 304° |
| 2026-04-23 22:17 | 14.28281 | 99.76686 | 22517 ft | 455 kts | 304° |
| 2026-04-23 22:17 | 14.30040 | 99.73967 | 22797 ft | 457 kts | 304° |
| 2026-04-23 22:17 | 14.31808 | 99.71232 | 23096 ft | 458 kts | 304° |
| 2026-04-23 22:17 | 14.33578 | 99.68494 | 23388 ft | 460 kts | 304° |
| 2026-04-23 22:18 | 14.35357 | 99.65740 | 23625 ft | 461 kts | 304° |
| 2026-04-23 22:18 | 14.37136 | 99.62985 | 23880 ft | 462 kts | 304° |
| 2026-04-23 22:18 | 14.38918 | 99.60225 | 24150 ft | 462 kts | 304° |
| 2026-04-23 22:18 | 14.40697 | 99.57467 | 24451 ft | 462 kts | 304° |
| 2026-04-23 22:19 | 14.42482 | 99.54701 | 24703 ft | 463 kts | 304° |
| 2026-04-23 22:19 | 14.44261 | 99.51924 | 24923 ft | 465 kts | 302° |
| 2026-04-23 22:19 | 14.45874 | 99.49067 | 25099 ft | 467 kts | 298° |
| 2026-04-23 22:19 | 14.47378 | 99.46090 | 25323 ft | 469 kts | 297° |
| 2026-04-23 22:20 | 14.48831 | 99.43082 | 25699 ft | 465 kts | 296° |
| 2026-04-23 22:20 | 14.50268 | 99.40090 | 25971 ft | 466 kts | 297° |
| 2026-04-23 22:20 | 14.51729 | 99.37083 | 26062 ft | 471 kts | 297° |
| 2026-04-23 22:20 | 14.53220 | 99.34059 | 26250 ft | 473 kts | 297° |
| 2026-04-23 22:21 | 14.54728 | 99.31034 | 26432 ft | 475 kts | 297° |
| 2026-04-23 22:21 | 14.56248 | 99.28005 | 26739 ft | 473 kts | 297° |
| 2026-04-23 22:21 | 14.57765 | 99.24992 | 27037 ft | 474 kts | 297° |
| 2026-04-23 22:22 | 14.62337 | 99.15917 | 27674 ft | 478 kts | 297° |
| 2026-04-23 22:22 | 14.63876 | 99.12857 | 27774 ft | 481 kts | 297° |
| 2026-04-23 22:22 | 14.65420 | 99.09785 | 27964 ft | 483 kts | 297° |
| 2026-04-23 22:23 | 14.66971 | 99.06697 | 28131 ft | 485 kts | 297° |
| 2026-04-23 22:23 | 14.68528 | 99.03596 | 28314 ft | 487 kts | 297° |
| 2026-04-23 22:23 | 14.70069 | 99.00524 | 28514 ft | 488 kts | 297° |
| 2026-04-23 22:23 | 14.71631 | 98.97409 | 28701 ft | 489 kts | 297° |
| 2026-04-23 22:24 | 14.73201 | 98.94277 | 28921 ft | 489 kts | 297° |
| 2026-04-23 22:24 | 14.74764 | 98.91159 | 29074 ft | 491 kts | 297° |
| 2026-04-23 22:24 | 14.76339 | 98.88015 | 29230 ft | 492 kts | 297° |
| 2026-04-23 22:24 | 14.77915 | 98.84868 | 29384 ft | 494 kts | 297° |
| 2026-04-23 22:25 | 14.79495 | 98.81711 | 29527 ft | 495 kts | 297° |
| 2026-04-23 22:25 | 14.81076 | 98.78550 | 29738 ft | 496 kts | 297° |
| 2026-04-23 22:25 | 14.82660 | 98.75382 | 29870 ft | 497 kts | 297° |
| 2026-04-23 22:25 | 14.84230 | 98.72243 | 30004 ft | 498 kts | 297° |
| 2026-04-23 22:26 | 14.85819 | 98.69061 | 30121 ft | 499 kts | 297° |
| 2026-04-23 22:26 | 14.87416 | 98.65866 | 30243 ft | 499 kts | 297° |
| 2026-04-23 22:26 | 14.89008 | 98.62677 | 30418 ft | 499 kts | 297° |
| 2026-04-23 22:26 | 14.90600 | 98.59488 | 30628 ft | 497 kts | 297° |
| 2026-04-23 22:27 | 14.92182 | 98.56315 | 30848 ft | 496 kts | 297° |
| 2026-04-23 22:27 | 14.93761 | 98.53149 | 31059 ft | 495 kts | 297° |
| 2026-04-23 22:27 | 14.95343 | 98.49974 | 31248 ft | 494 kts | 297° |
| 2026-04-23 22:27 | 14.96898 | 98.46852 | 31450 ft | 493 kts | 297° |
| 2026-04-23 22:28 | 14.98475 | 98.43688 | 31665 ft | 492 kts | 297° |
| 2026-04-23 22:28 | 15.00040 | 98.40543 | 31880 ft | 491 kts | 297° |
| 2026-04-23 22:28 | 15.01602 | 98.37404 | 32104 ft | 490 kts | 296° |
| 2026-04-23 22:28 | 15.03159 | 98.34271 | 32321 ft | 489 kts | 296° |
| 2026-04-23 22:29 | 15.04703 | 98.31166 | 32541 ft | 488 kts | 296° |
| 2026-04-23 22:29 | 15.06254 | 98.28045 | 32755 ft | 487 kts | 296° |
| 2026-04-23 22:29 | 15.07801 | 98.24929 | 32975 ft | 486 kts | 296° |
| 2026-04-23 22:29 | 15.09348 | 98.21815 | 33188 ft | 485 kts | 296° |
| 2026-04-23 22:30 | 15.10896 | 98.18713 | 33399 ft | 485 kts | 296° |
| 2026-04-23 22:30 | 15.12461 | 98.15627 | 33623 ft | 484 kts | 297° |
| 2026-04-23 22:30 | 15.14033 | 98.12549 | 33771 ft | 485 kts | 297° |
| 2026-04-23 22:30 | 15.15614 | 98.09459 | 33809 ft | 486 kts | 297° |
| 2026-04-23 22:31 | 15.18772 | 98.03275 | 33822 ft | 484 kts | 297° |
| 2026-04-23 22:31 | 15.21886 | 97.97157 | 33824 ft | 482 kts | 297° |
| 2026-04-23 22:32 | 15.25002 | 97.91019 | 33843 ft | 480 kts | 297° |
| 2026-04-23 22:32 | 15.27608 | 97.85881 | 33818 ft | 480 kts | 297° |
| 2026-04-23 22:33 | 15.30695 | 97.79791 | 33822 ft | 480 kts | 297° |
| 2026-04-23 22:33 | 15.33805 | 97.73650 | 33830 ft | 481 kts | 297° |
| 2026-04-23 22:34 | 15.36917 | 97.67502 | 33828 ft | 482 kts | 296° |
| 2026-04-23 22:34 | 15.40016 | 97.61374 | 33813 ft | 483 kts | 296° |
| 2026-04-23 22:35 | 15.43140 | 97.55191 | 33815 ft | 484 kts | 296° |
| 2026-04-23 22:35 | 15.46268 | 97.48994 | 33819 ft | 484 kts | 296° |
| 2026-04-23 22:36 | 15.49393 | 97.42800 | 33822 ft | 484 kts | 296° |
| 2026-04-23 22:36 | 15.52515 | 97.36604 | 33826 ft | 484 kts | 296° |
| 2026-04-23 22:37 | 15.55615 | 97.30448 | 33818 ft | 484 kts | 296° |
| 2026-04-23 22:37 | 15.58728 | 97.24260 | 33817 ft | 484 kts | 296° |
| 2026-04-23 22:38 | 15.61841 | 97.18069 | 33820 ft | 483 kts | 296° |
| 2026-04-23 22:38 | 15.64952 | 97.11875 | 33818 ft | 483 kts | 296° |
| 2026-04-23 22:39 | 15.68054 | 97.05692 | 33813 ft | 482 kts | 296° |
| 2026-04-23 22:39 | 15.71131 | 96.99555 | 33818 ft | 482 kts | 296° |
| 2026-04-23 22:40 | 15.74225 | 96.93379 | 33819 ft | 482 kts | 296° |
| 2026-04-23 22:41 | 15.78859 | 96.84118 | 33814 ft | 481 kts | 296° |
| 2026-04-23 22:41 | 15.81947 | 96.77941 | 33814 ft | 481 kts | 296° |
| 2026-04-23 22:42 | 15.85017 | 96.71793 | 33817 ft | 482 kts | 296° |
| 2026-04-23 22:42 | 15.88105 | 96.65604 | 33814 ft | 482 kts | 296° |
| 2026-04-23 22:43 | 15.91190 | 96.59417 | 33823 ft | 482 kts | 296° |
| 2026-04-23 22:43 | 15.94272 | 96.53229 | 33813 ft | 482 kts | 296° |
| 2026-04-23 22:44 | 15.97357 | 96.47031 | 33816 ft | 481 kts | 296° |
| 2026-04-23 22:44 | 16.00416 | 96.40879 | 33813 ft | 481 kts | 296° |
| 2026-04-23 22:45 | 16.03487 | 96.34697 | 33811 ft | 480 kts | 296° |
| 2026-04-23 22:45 | 16.06550 | 96.28527 | 33813 ft | 480 kts | 296° |
| 2026-04-23 22:46 | 16.09611 | 96.22354 | 33819 ft | 480 kts | 296° |
| 2026-04-23 22:46 | 16.12666 | 96.16189 | 33812 ft | 479 kts | 296° |
| 2026-04-23 22:47 | 16.15724 | 96.10011 | 33811 ft | 479 kts | 296° |
| 2026-04-23 22:47 | 16.18753 | 96.03887 | 33810 ft | 479 kts | 296° |
| 2026-04-23 22:48 | 16.21820 | 95.97680 | 33813 ft | 479 kts | 296° |
| 2026-04-23 22:48 | 16.24850 | 95.91544 | 33810 ft | 479 kts | 296° |
| 2026-04-23 22:49 | 16.27902 | 95.85357 | 33815 ft | 479 kts | 296° |
| 2026-04-23 22:49 | 16.30927 | 95.79218 | 33811 ft | 479 kts | 296° |
| 2026-04-23 22:50 | 16.33974 | 95.73030 | 33806 ft | 479 kts | 296° |
| 2026-04-23 22:50 | 16.37010 | 95.66858 | 33810 ft | 479 kts | 296° |
| 2026-04-23 22:51 | 16.40049 | 95.60676 | 33807 ft | 478 kts | 296° |
| 2026-04-23 22:51 | 16.43060 | 95.54544 | 33806 ft | 478 kts | 296° |
| 2026-04-23 22:52 | 16.46088 | 95.48372 | 33809 ft | 478 kts | 296° |
| 2026-04-23 22:52 | 16.49113 | 95.42202 | 33807 ft | 477 kts | 295° |
| 2026-04-23 22:53 | 16.52131 | 95.36038 | 33803 ft | 477 kts | 295° |
| 2026-04-23 22:53 | 16.55150 | 95.29868 | 33816 ft | 477 kts | 295° |
| 2026-04-23 22:54 | 16.58162 | 95.23706 | 33800 ft | 477 kts | 295° |
| 2026-04-23 22:54 | 16.61158 | 95.17571 | 33803 ft | 477 kts | 295° |
| 2026-04-23 22:55 | 16.64170 | 95.11398 | 33808 ft | 476 kts | 295° |
| 2026-04-23 22:55 | 16.67175 | 95.05234 | 33807 ft | 476 kts | 295° |
| 2026-04-23 22:56 | 16.70172 | 94.99079 | 33808 ft | 476 kts | 295° |
| 2026-04-23 22:56 | 16.73165 | 94.92929 | 33804 ft | 475 kts | 295° |
| 2026-04-23 22:57 | 16.76136 | 94.86816 | 33798 ft | 475 kts | 295° |
| 2026-04-23 22:57 | 16.79120 | 94.80671 | 33800 ft | 474 kts | 295° |
| 2026-04-23 22:58 | 16.82545 | 94.74765 | 33798 ft | 477 kts | 305° |
| 2026-04-23 22:58 | 16.86747 | 94.69389 | 33798 ft | 478 kts | 307° |
| 2026-04-23 22:59 | 16.90974 | 94.64011 | 33800 ft | 478 kts | 307° |
| 2026-04-23 22:59 | 16.95171 | 94.58624 | 33802 ft | 478 kts | 306° |
| 2026-04-23 23:00 | 16.99361 | 94.53218 | 33809 ft | 478 kts | 306° |
| 2026-04-23 23:00 | 17.03519 | 94.47844 | 33811 ft | 478 kts | 306° |
| 2026-04-23 23:01 | 17.07702 | 94.42436 | 33802 ft | 477 kts | 306° |
| 2026-04-23 23:01 | 17.11876 | 94.37035 | 33803 ft | 476 kts | 306° |
| 2026-04-23 23:02 | 17.16037 | 94.31649 | 33797 ft | 476 kts | 306° |
| 2026-04-23 23:02 | 17.20193 | 94.26263 | 33804 ft | 475 kts | 306° |
| 2026-04-23 23:03 | 17.24343 | 94.20882 | 33800 ft | 474 kts | 306° |
| 2026-04-23 23:03 | 17.28459 | 94.15540 | 33805 ft | 474 kts | 306° |
| 2026-04-23 23:04 | 17.32599 | 94.10163 | 33813 ft | 474 kts | 306° |
| 2026-04-23 23:04 | 17.36732 | 94.04791 | 33818 ft | 474 kts | 306° |
| 2026-04-23 23:05 | 17.40870 | 93.99407 | 33814 ft | 473 kts | 306° |
| 2026-04-23 23:05 | 17.44974 | 93.94065 | 33810 ft | 473 kts | 306° |
| 2026-04-23 23:06 | 17.49091 | 93.88701 | 33809 ft | 473 kts | 306° |
| 2026-04-23 23:06 | 17.53221 | 93.83315 | 33814 ft | 472 kts | 306° |
| 2026-04-23 23:07 | 17.57340 | 93.77939 | 33815 ft | 472 kts | 306° |
| 2026-04-23 23:07 | 17.61457 | 93.72563 | 33812 ft | 472 kts | 305° |
| 2026-04-23 23:08 | 17.65566 | 93.67190 | 33817 ft | 472 kts | 305° |
| 2026-04-23 23:08 | 17.69675 | 93.61816 | 33815 ft | 472 kts | 305° |
| 2026-04-23 23:09 | 17.73758 | 93.56470 | 33828 ft | 472 kts | 305° |
| 2026-04-23 23:09 | 17.77872 | 93.51079 | 33815 ft | 472 kts | 305° |
| 2026-04-23 23:10 | 17.81284 | 93.46605 | 33816 ft | 472 kts | 305° |
| 2026-04-23 23:10 | 17.86079 | 93.40311 | 33822 ft | 472 kts | 305° |
| 2026-04-23 23:11 | 17.90176 | 93.34930 | 33817 ft | 472 kts | 305° |
| 2026-04-23 23:11 | 17.94252 | 93.29571 | 33823 ft | 472 kts | 305° |
| 2026-04-23 23:12 | 17.98349 | 93.24180 | 33820 ft | 471 kts | 305° |
| 2026-04-23 23:12 | 18.02439 | 93.18795 | 33824 ft | 471 kts | 305° |
| 2026-04-23 23:13 | 18.06535 | 93.13397 | 33834 ft | 471 kts | 305° |
| 2026-04-23 23:13 | 18.10599 | 93.08037 | 33829 ft | 471 kts | 305° |
| 2026-04-23 23:14 | 18.14687 | 93.02641 | 33824 ft | 470 kts | 305° |
| 2026-04-23 23:14 | 18.18729 | 92.97300 | 33815 ft | 469 kts | 305° |
| 2026-04-23 23:15 | 18.22783 | 92.91939 | 33822 ft | 468 kts | 305° |
| 2026-04-23 23:15 | 18.26147 | 92.87488 | 33824 ft | 467 kts | 305° |
| 2026-04-23 23:16 | 18.30212 | 92.82103 | 33824 ft | 466 kts | 305° |
| 2026-04-23 23:16 | 18.34224 | 92.76786 | 33818 ft | 466 kts | 305° |
| 2026-04-23 23:17 | 18.38260 | 92.71431 | 33830 ft | 466 kts | 305° |
| 2026-04-23 23:17 | 18.42291 | 92.66080 | 33830 ft | 466 kts | 305° |
| 2026-04-23 23:18 | 18.46319 | 92.60727 | 33816 ft | 466 kts | 304° |
| 2026-04-23 23:18 | 18.50345 | 92.55373 | 33833 ft | 465 kts | 304° |
| 2026-04-23 23:19 | 18.54369 | 92.50018 | 33838 ft | 465 kts | 304° |
| 2026-04-23 23:19 | 18.58377 | 92.44678 | 33823 ft | 464 kts | 304° |
| 2026-04-23 23:20 | 18.62384 | 92.39336 | 33822 ft | 464 kts | 304° |
| 2026-04-23 23:20 | 18.66360 | 92.34030 | 33822 ft | 464 kts | 304° |
| 2026-04-23 23:21 | 18.70355 | 92.28693 | 33838 ft | 463 kts | 304° |
| 2026-04-23 23:21 | 18.74358 | 92.23342 | 33826 ft | 463 kts | 304° |
| 2026-04-23 23:22 | 18.78355 | 92.17995 | 33827 ft | 463 kts | 304° |
| 2026-04-23 23:22 | 18.82333 | 92.12668 | 33825 ft | 464 kts | 304° |
| 2026-04-23 23:23 | 18.86323 | 92.07319 | 33843 ft | 464 kts | 304° |
| 2026-04-23 23:23 | 18.90313 | 92.01967 | 33827 ft | 464 kts | 304° |
| 2026-04-23 23:24 | 18.94301 | 91.96590 | 33824 ft | 464 kts | 304° |
| 2026-04-23 23:24 | 18.98222 | 91.91225 | 33825 ft | 464 kts | 304° |
| 2026-04-23 23:25 | 19.02165 | 91.85816 | 33842 ft | 464 kts | 303° |
| 2026-04-23 23:25 | 19.06105 | 91.80412 | 33827 ft | 464 kts | 303° |
| 2026-04-23 23:26 | 19.10052 | 91.75001 | 33827 ft | 464 kts | 303° |
| 2026-04-23 23:26 | 19.13996 | 91.69590 | 33832 ft | 464 kts | 303° |
| 2026-04-23 23:27 | 19.17908 | 91.64219 | 33828 ft | 462 kts | 303° |
| 2026-04-23 23:27 | 19.21836 | 91.58821 | 33829 ft | 461 kts | 303° |
| 2026-04-23 23:28 | 19.25740 | 91.53449 | 33829 ft | 459 kts | 303° |
| 2026-04-23 23:28 | 19.29607 | 91.48125 | 33829 ft | 458 kts | 303° |
| 2026-04-23 23:29 | 19.33491 | 91.42773 | 33830 ft | 457 kts | 303° |
| 2026-04-23 23:29 | 19.37365 | 91.37430 | 33830 ft | 457 kts | 303° |
| 2026-04-23 23:30 | 19.41241 | 91.32078 | 33830 ft | 457 kts | 303° |
| 2026-04-23 23:30 | 19.45117 | 91.26721 | 33830 ft | 458 kts | 303° |
| 2026-04-23 23:31 | 19.48969 | 91.21395 | 33833 ft | 458 kts | 303° |
| 2026-04-23 23:31 | 19.52849 | 91.16025 | 33826 ft | 458 kts | 303° |
| 2026-04-23 23:32 | 19.56721 | 91.10660 | 33825 ft | 458 kts | 303° |
| 2026-04-23 23:32 | 19.60566 | 91.05329 | 33828 ft | 458 kts | 303° |
| 2026-04-23 23:33 | 19.64431 | 90.99964 | 33827 ft | 458 kts | 303° |
| 2026-04-23 23:33 | 19.68304 | 90.94584 | 33827 ft | 458 kts | 303° |
| 2026-04-23 23:34 | 19.72172 | 90.89207 | 33830 ft | 458 kts | 303° |
| 2026-04-23 23:34 | 19.76035 | 90.83831 | 33829 ft | 458 kts | 303° |
| 2026-04-23 23:35 | 19.79875 | 90.78483 | 33843 ft | 458 kts | 303° |
| 2026-04-23 23:35 | 19.83739 | 90.73096 | 33833 ft | 458 kts | 303° |
| 2026-04-23 23:36 | 19.87603 | 90.67705 | 33828 ft | 458 kts | 303° |
| 2026-04-23 23:36 | 19.91473 | 90.62301 | 33830 ft | 458 kts | 303° |
| 2026-04-23 23:37 | 19.95302 | 90.56948 | 33830 ft | 458 kts | 303° |
| 2026-04-23 23:37 | 19.99159 | 90.51551 | 33830 ft | 458 kts | 303° |
| 2026-04-23 23:38 | 20.03011 | 90.46157 | 33831 ft | 458 kts | 303° |
| 2026-04-23 23:38 | 20.06865 | 90.40754 | 33833 ft | 458 kts | 303° |
| 2026-04-23 23:39 | 20.10719 | 90.35347 | 33829 ft | 458 kts | 302° |
| 2026-04-23 23:39 | 20.14549 | 90.29969 | 33845 ft | 459 kts | 302° |
| 2026-04-23 23:40 | 20.18406 | 90.24547 | 33830 ft | 459 kts | 302° |
| 2026-04-23 23:40 | 20.22262 | 90.19122 | 33831 ft | 459 kts | 302° |
| 2026-04-23 23:41 | 20.26096 | 90.13723 | 33832 ft | 459 kts | 302° |
| 2026-04-23 23:41 | 20.29971 | 90.08261 | 33833 ft | 459 kts | 302° |
| 2026-04-23 23:42 | 20.33793 | 90.02869 | 33835 ft | 459 kts | 302° |
| 2026-04-23 23:42 | 20.37643 | 89.97433 | 33837 ft | 459 kts | 302° |
| 2026-04-23 23:43 | 20.41497 | 89.91985 | 33836 ft | 459 kts | 302° |
| 2026-04-23 23:43 | 20.45320 | 89.86577 | 33836 ft | 459 kts | 302° |
| 2026-04-23 23:44 | 20.49163 | 89.81135 | 33842 ft | 459 kts | 302° |
| 2026-04-23 23:44 | 20.53005 | 89.75689 | 33833 ft | 459 kts | 302° |
| 2026-04-23 23:45 | 20.56840 | 89.70248 | 33832 ft | 458 kts | 302° |
| 2026-04-23 23:45 | 20.60667 | 89.64813 | 33830 ft | 457 kts | 302° |
| 2026-04-23 23:46 | 20.64484 | 89.59388 | 33832 ft | 457 kts | 302° |
| 2026-04-23 23:46 | 20.68273 | 89.53996 | 33830 ft | 456 kts | 302° |
| 2026-04-23 23:47 | 20.72078 | 89.48577 | 33829 ft | 456 kts | 301° |
| 2026-04-23 23:47 | 20.75883 | 89.43151 | 33828 ft | 456 kts | 301° |
| 2026-04-23 23:48 | 20.79682 | 89.37731 | 33824 ft | 456 kts | 301° |
| 2026-04-23 23:48 | 20.83481 | 89.32304 | 33830 ft | 455 kts | 301° |
| 2026-04-23 23:49 | 20.89161 | 89.24181 | 33826 ft | 453 kts | 301° |
| 2026-04-23 23:49 | 20.93262 | 89.19012 | 33828 ft | 459 kts | 309° |
| 2026-04-23 23:50 | 20.98064 | 89.14493 | 33821 ft | 462 kts | 313° |
| 2026-04-23 23:50 | 21.02931 | 89.09992 | 33822 ft | 461 kts | 312° |
| 2026-04-23 23:51 | 21.07779 | 89.05466 | 33819 ft | 461 kts | 312° |
| 2026-04-23 23:51 | 21.12576 | 89.00969 | 33819 ft | 461 kts | 312° |
| 2026-04-23 23:52 | 21.17401 | 88.96444 | 33826 ft | 460 kts | 312° |
| 2026-04-23 23:52 | 21.22207 | 88.91933 | 33813 ft | 458 kts | 312° |
| 2026-04-23 23:53 | 21.27000 | 88.87429 | 33814 ft | 456 kts | 312° |
| 2026-04-23 23:53 | 21.31766 | 88.82947 | 33813 ft | 455 kts | 311° |
| 2026-04-23 23:54 | 21.36100 | 88.78172 | 33815 ft | 445 kts | 302° |
| 2026-04-23 23:54 | 21.39630 | 88.72757 | 33822 ft | 442 kts | 294° |
| 2026-04-23 23:55 | 21.42616 | 88.66953 | 33812 ft | 445 kts | 293° |
| 2026-04-23 23:55 | 21.45597 | 88.61103 | 33807 ft | 447 kts | 294° |
| 2026-04-23 23:56 | 21.48587 | 88.55275 | 33807 ft | 440 kts | 294° |
| 2026-04-23 23:56 | 21.51523 | 88.49572 | 33805 ft | 435 kts | 294° |
| 2026-04-23 23:57 | 21.54447 | 88.43882 | 33800 ft | 435 kts | 293° |
| 2026-04-23 23:57 | 21.57356 | 88.38214 | 33805 ft | 436 kts | 293° |
| 2026-04-23 23:58 | 21.60292 | 88.32489 | 33808 ft | 437 kts | 293° |
| 2026-04-23 23:58 | 21.63227 | 88.26763 | 33800 ft | 438 kts | 293° |
| 2026-04-23 23:59 | 21.65671 | 88.21989 | 33805 ft | 439 kts | 293° |
| 2026-04-23 23:59 | 21.69096 | 88.15292 | 33797 ft | 439 kts | 293° |
| 2026-04-24 00:00 | 21.72044 | 88.09523 | 33804 ft | 440 kts | 293° |
| 2026-04-24 00:00 | 21.74496 | 88.04718 | 33797 ft | 440 kts | 293° |
| 2026-04-24 00:01 | 21.77441 | 87.98942 | 33798 ft | 440 kts | 293° |
| 2026-04-24 00:01 | 21.80392 | 87.93148 | 33804 ft | 441 kts | 294° |
| 2026-04-24 00:02 | 21.83335 | 87.87361 | 33795 ft | 441 kts | 294° |
| 2026-04-24 00:02 | 21.86280 | 87.81567 | 33793 ft | 441 kts | 294° |
| 2026-04-24 00:03 | 21.89205 | 87.75805 | 33798 ft | 440 kts | 293° |
| 2026-04-24 00:03 | 21.92142 | 87.70012 | 33803 ft | 440 kts | 293° |
| 2026-04-24 00:04 | 21.95077 | 87.64217 | 33794 ft | 440 kts | 293° |
| 2026-04-24 00:04 | 21.98007 | 87.58426 | 33799 ft | 440 kts | 293° |
| 2026-04-24 00:05 | 22.00919 | 87.52663 | 33799 ft | 440 kts | 293° |
| 2026-04-24 00:05 | 22.03846 | 87.46864 | 33799 ft | 440 kts | 293° |
| 2026-04-24 00:06 | 22.06774 | 87.41056 | 33805 ft | 440 kts | 293° |
| 2026-04-24 00:06 | 22.09699 | 87.35249 | 33808 ft | 441 kts | 293° |
| 2026-04-24 00:07 | 22.12623 | 87.29437 | 33817 ft | 441 kts | 292° |
| 2026-04-24 00:07 | 22.15658 | 87.23712 | 33814 ft | 445 kts | 297° |
| 2026-04-24 00:08 | 22.19138 | 87.18178 | 33813 ft | 445 kts | 297° |
| 2026-04-24 00:08 | 22.22607 | 87.12637 | 33814 ft | 445 kts | 297° |
| 2026-04-24 00:09 | 22.26062 | 87.07089 | 33816 ft | 445 kts | 297° |
| 2026-04-24 00:09 | 22.29509 | 87.01538 | 33817 ft | 444 kts | 297° |
| 2026-04-24 00:10 | 22.32932 | 86.96016 | 33822 ft | 444 kts | 297° |
| 2026-04-24 00:10 | 22.36374 | 86.90460 | 33828 ft | 444 kts | 297° |
| 2026-04-24 00:11 | 22.39812 | 86.84906 | 33828 ft | 445 kts | 297° |
| 2026-04-24 00:11 | 22.43247 | 86.79351 | 33859 ft | 444 kts | 297° |
| 2026-04-24 00:12 | 22.46684 | 86.73785 | 33844 ft | 444 kts | 297° |
| 2026-04-24 00:12 | 22.50113 | 86.68227 | 33843 ft | 444 kts | 297° |
| 2026-04-24 00:13 | 22.53519 | 86.62700 | 33839 ft | 444 kts | 297° |
| 2026-04-24 00:13 | 22.56944 | 86.57137 | 33859 ft | 443 kts | 297° |
| 2026-04-24 00:14 | 22.60365 | 86.51574 | 33857 ft | 443 kts | 296° |
| 2026-04-24 00:14 | 22.63780 | 86.46015 | 33860 ft | 443 kts | 296° |
| 2026-04-24 00:15 | 22.67199 | 86.40445 | 33859 ft | 443 kts | 296° |
| 2026-04-24 00:15 | 22.70614 | 86.34874 | 33845 ft | 443 kts | 296° |
| 2026-04-24 00:16 | 22.74001 | 86.29342 | 33873 ft | 443 kts | 296° |
| 2026-04-24 00:16 | 22.77412 | 86.23767 | 33779 ft | 444 kts | 296° |
| 2026-04-24 00:17 | 22.80846 | 86.18196 | 33781 ft | 445 kts | 298° |
| 2026-04-24 00:17 | 22.84868 | 86.13006 | 33774 ft | 453 kts | 304° |
| 2026-04-24 00:18 | 22.89100 | 86.07937 | 33785 ft | 453 kts | 304° |
| 2026-04-24 00:18 | 22.93299 | 86.02869 | 33812 ft | 453 kts | 304° |
| 2026-04-24 00:19 | 22.97510 | 85.97760 | 33827 ft | 454 kts | 304° |
| 2026-04-24 00:19 | 23.01722 | 85.92643 | 33853 ft | 454 kts | 304° |
| 2026-04-24 00:20 | 23.05903 | 85.87557 | 33901 ft | 454 kts | 304° |
| 2026-04-24 00:20 | 23.10117 | 85.82426 | 33888 ft | 454 kts | 304° |
| 2026-04-24 00:21 | 23.14317 | 85.77307 | 33885 ft | 453 kts | 304° |
| 2026-04-24 00:21 | 23.18521 | 85.72180 | 33899 ft | 453 kts | 304° |
| 2026-04-24 00:22 | 23.22683 | 85.67097 | 33905 ft | 452 kts | 304° |
| 2026-04-24 00:22 | 23.26866 | 85.61983 | 33911 ft | 452 kts | 304° |
| 2026-04-24 00:23 | 23.31048 | 85.56864 | 33931 ft | 451 kts | 304° |
| 2026-04-24 00:23 | 23.35218 | 85.51756 | 33928 ft | 451 kts | 304° |
| 2026-04-24 00:24 | 23.39388 | 85.46642 | 33941 ft | 452 kts | 304° |
| 2026-04-24 00:24 | 23.43563 | 85.41516 | 33939 ft | 452 kts | 304° |
| 2026-04-24 00:25 | 23.47742 | 85.36380 | 33935 ft | 453 kts | 304° |
| 2026-04-24 00:25 | 23.51908 | 85.31257 | 33931 ft | 454 kts | 304° |
| 2026-04-24 00:26 | 23.56096 | 85.26099 | 33919 ft | 455 kts | 304° |
| 2026-04-24 00:26 | 23.60297 | 85.20920 | 33919 ft | 456 kts | 304° |
| 2026-04-24 00:27 | 23.64507 | 85.15726 | 33919 ft | 456 kts | 304° |
| 2026-04-24 00:27 | 23.68685 | 85.10567 | 33923 ft | 456 kts | 304° |
| 2026-04-24 00:28 | 23.72893 | 85.05365 | 33911 ft | 456 kts | 304° |
| 2026-04-24 00:28 | 23.77086 | 85.00173 | 33896 ft | 456 kts | 304° |
| 2026-04-24 00:29 | 23.81275 | 84.94982 | 33887 ft | 455 kts | 304° |
| 2026-04-24 00:29 | 23.85464 | 84.89786 | 33894 ft | 455 kts | 304° |
| 2026-04-24 00:30 | 23.89620 | 84.84625 | 33893 ft | 454 kts | 304° |
| 2026-04-24 00:30 | 23.93793 | 84.79438 | 33867 ft | 454 kts | 304° |
| 2026-04-24 00:31 | 23.97962 | 84.74249 | 33890 ft | 454 kts | 304° |
| 2026-04-24 00:31 | 24.02133 | 84.69053 | 33864 ft | 454 kts | 304° |
| 2026-04-24 00:32 | 24.06297 | 84.63861 | 33844 ft | 453 kts | 304° |
| 2026-04-24 00:32 | 24.10455 | 84.58669 | 33847 ft | 453 kts | 304° |
| 2026-04-24 00:33 | 24.14603 | 84.53483 | 33846 ft | 453 kts | 304° |
| 2026-04-24 00:33 | 24.18760 | 84.48282 | 33823 ft | 453 kts | 304° |
| 2026-04-24 00:34 | 24.22875 | 84.43122 | 33826 ft | 453 kts | 304° |
| 2026-04-24 00:34 | 24.27008 | 84.37908 | 33823 ft | 453 kts | 304° |
| 2026-04-24 00:35 | 24.31139 | 84.32683 | 33810 ft | 454 kts | 304° |
| 2026-04-24 00:35 | 24.35283 | 84.27438 | 33810 ft | 455 kts | 304° |
| 2026-04-24 00:36 | 24.39423 | 84.22195 | 33806 ft | 458 kts | 305° |
| 2026-04-24 00:36 | 24.43600 | 84.16900 | 33791 ft | 460 kts | 305° |
| 2026-04-24 00:37 | 24.47799 | 84.11573 | 33794 ft | 462 kts | 305° |
| 2026-04-24 00:37 | 24.52010 | 84.06225 | 33795 ft | 463 kts | 305° |
| 2026-04-24 00:38 | 24.56198 | 84.00898 | 33780 ft | 463 kts | 305° |
| 2026-04-24 00:38 | 24.60418 | 83.95525 | 33791 ft | 464 kts | 306° |
| 2026-04-24 00:39 | 24.64642 | 83.90141 | 33777 ft | 466 kts | 306° |
| 2026-04-24 00:39 | 24.68884 | 83.84729 | 33778 ft | 466 kts | 306° |
| 2026-04-24 00:40 | 24.73102 | 83.79341 | 33780 ft | 467 kts | 306° |
| 2026-04-24 00:40 | 24.77340 | 83.73920 | 33773 ft | 468 kts | 306° |
| 2026-04-24 00:41 | 24.81599 | 83.68466 | 33787 ft | 468 kts | 306° |
| 2026-04-24 00:41 | 24.85846 | 83.63022 | 33780 ft | 468 kts | 306° |
| 2026-04-24 00:42 | 24.90090 | 83.57573 | 33775 ft | 469 kts | 307° |
| 2026-04-24 00:42 | 24.93624 | 83.53035 | 33786 ft | 470 kts | 307° |
| 2026-04-24 00:43 | 24.98584 | 83.46655 | 33787 ft | 472 kts | 307° |
| 2026-04-24 00:43 | 25.02866 | 83.41139 | 33785 ft | 474 kts | 307° |
| 2026-04-24 00:44 | 25.06439 | 83.36532 | 33786 ft | 475 kts | 307° |
| 2026-04-24 00:44 | 25.10745 | 83.30976 | 33788 ft | 476 kts | 307° |
| 2026-04-24 00:45 | 25.15053 | 83.25409 | 33781 ft | 477 kts | 307° |
| 2026-04-24 00:45 | 25.19340 | 83.19863 | 33780 ft | 477 kts | 307° |
| 2026-04-24 00:46 | 25.23648 | 83.14283 | 33778 ft | 477 kts | 307° |
| 2026-04-24 00:46 | 25.27951 | 83.08702 | 33777 ft | 476 kts | 307° |
| 2026-04-24 00:47 | 25.32252 | 83.03118 | 33778 ft | 476 kts | 307° |
| 2026-04-24 00:47 | 25.36521 | 82.97567 | 33778 ft | 476 kts | 307° |
| 2026-04-24 00:48 | 25.40805 | 82.91990 | 33778 ft | 476 kts | 307° |
| 2026-04-24 00:48 | 25.45090 | 82.86405 | 33778 ft | 475 kts | 307° |
| 2026-04-24 00:49 | 25.49117 | 82.80619 | 33773 ft | 475 kts | 304° |
| 2026-04-24 00:49 | 25.53061 | 82.74741 | 33782 ft | 477 kts | 305° |
| 2026-04-24 00:50 | 25.57010 | 82.68858 | 33779 ft | 480 kts | 305° |
| 2026-04-24 00:50 | 25.61022 | 82.62903 | 33780 ft | 483 kts | 305° |
| 2026-04-24 00:51 | 25.65057 | 82.56918 | 33781 ft | 485 kts | 305° |
| 2026-04-24 00:51 | 25.69103 | 82.50914 | 33778 ft | 486 kts | 305° |
| 2026-04-24 00:52 | 25.73157 | 82.44885 | 33776 ft | 486 kts | 305° |
| 2026-04-24 00:52 | 25.77177 | 82.38901 | 33778 ft | 486 kts | 305° |
| 2026-04-24 00:53 | 25.81213 | 82.32883 | 33770 ft | 486 kts | 305° |
| 2026-04-24 00:53 | 25.85244 | 82.26866 | 33772 ft | 485 kts | 305° |
| 2026-04-24 00:54 | 25.89267 | 82.20852 | 33771 ft | 484 kts | 305° |
| 2026-04-24 00:54 | 25.93287 | 82.14836 | 33772 ft | 483 kts | 305° |
| 2026-04-24 00:55 | 25.97264 | 82.08876 | 33771 ft | 483 kts | 305° |
| 2026-04-24 00:55 | 26.01267 | 82.02868 | 33769 ft | 483 kts | 305° |
| 2026-04-24 00:56 | 26.05266 | 81.96861 | 33776 ft | 482 kts | 305° |
| 2026-04-24 00:56 | 26.09254 | 81.90861 | 33767 ft | 482 kts | 305° |
| 2026-04-24 00:57 | 26.13241 | 81.84854 | 33764 ft | 482 kts | 305° |
| 2026-04-24 00:58 | 26.19214 | 81.75841 | 33764 ft | 481 kts | 305° |
| 2026-04-24 00:58 | 26.23187 | 81.69836 | 33764 ft | 481 kts | 305° |
| 2026-04-24 00:59 | 26.27133 | 81.63864 | 33768 ft | 481 kts | 305° |
| 2026-04-24 00:59 | 26.31107 | 81.57842 | 33768 ft | 481 kts | 305° |
| 2026-04-24 01:00 | 26.35068 | 81.51833 | 33764 ft | 481 kts | 304° |
| 2026-04-24 01:00 | 26.39028 | 81.45817 | 33769 ft | 480 kts | 304° |
| 2026-04-24 01:01 | 26.42954 | 81.39842 | 33765 ft | 480 kts | 304° |
| 2026-04-24 01:01 | 26.46900 | 81.33831 | 33763 ft | 479 kts | 304° |
| 2026-04-24 01:02 | 26.50841 | 81.27819 | 33770 ft | 479 kts | 304° |
| 2026-04-24 01:02 | 26.54772 | 81.21815 | 33767 ft | 479 kts | 304° |
| 2026-04-24 01:03 | 26.58684 | 81.15831 | 33763 ft | 478 kts | 304° |
| 2026-04-24 01:03 | 26.62604 | 81.09828 | 33767 ft | 478 kts | 304° |
| 2026-04-24 01:04 | 26.66523 | 81.03817 | 33765 ft | 477 kts | 304° |
| 2026-04-24 01:04 | 26.70427 | 80.97821 | 33766 ft | 476 kts | 304° |
| 2026-04-24 01:05 | 26.74305 | 80.91858 | 33774 ft | 476 kts | 304° |
| 2026-04-24 01:05 | 26.78401 | 80.86034 | 33800 ft | 479 kts | 309° |
| 2026-04-24 01:05 | 26.80576 | 80.83206 | 33950 ft | 479 kts | 309° |
| 2026-04-24 01:06 | 26.82755 | 80.80388 | 34207 ft | 478 kts | 309° |
| 2026-04-24 01:06 | 26.84934 | 80.77565 | 34457 ft | 476 kts | 309° |
| 2026-04-24 01:06 | 26.87096 | 80.74755 | 34669 ft | 476 kts | 308° |
| 2026-04-24 01:06 | 26.89231 | 80.71969 | 34848 ft | 476 kts | 308° |
| 2026-04-24 01:07 | 26.91389 | 80.69144 | 35028 ft | 477 kts | 308° |
| 2026-04-24 01:07 | 26.93541 | 80.66322 | 35242 ft | 476 kts | 308° |
| 2026-04-24 01:07 | 26.95691 | 80.63498 | 35446 ft | 475 kts | 308° |
| 2026-04-24 01:07 | 26.97836 | 80.60679 | 35640 ft | 475 kts | 308° |
| 2026-04-24 01:08 | 26.99990 | 80.57846 | 35682 ft | 478 kts | 308° |
| 2026-04-24 01:08 | 27.04312 | 80.52157 | 35761 ft | 480 kts | 308° |
| 2026-04-24 01:09 | 27.08637 | 80.46461 | 35755 ft | 476 kts | 308° |
| 2026-04-24 01:09 | 27.12890 | 80.40852 | 35758 ft | 472 kts | 308° |
| 2026-04-24 01:10 | 27.17141 | 80.35236 | 35761 ft | 471 kts | 308° |
| 2026-04-24 01:10 | 27.21386 | 80.29621 | 35760 ft | 470 kts | 308° |
| 2026-04-24 01:11 | 27.25627 | 80.24005 | 35761 ft | 471 kts | 308° |
| 2026-04-24 01:11 | 27.29851 | 80.18403 | 35761 ft | 473 kts | 308° |
| 2026-04-24 01:12 | 27.34109 | 80.12749 | 35762 ft | 474 kts | 308° |
| 2026-04-24 01:12 | 27.38385 | 80.07065 | 35760 ft | 476 kts | 308° |
| 2026-04-24 01:13 | 27.42666 | 80.01365 | 35767 ft | 477 kts | 308° |
| 2026-04-24 01:13 | 27.46962 | 79.95639 | 35762 ft | 478 kts | 308° |
| 2026-04-24 01:14 | 27.51237 | 79.89932 | 35758 ft | 479 kts | 308° |
| 2026-04-24 01:14 | 27.55529 | 79.84197 | 35757 ft | 478 kts | 308° |
| 2026-04-24 01:15 | 27.59815 | 79.78460 | 35761 ft | 478 kts | 308° |
| 2026-04-24 01:15 | 27.64100 | 79.72716 | 35757 ft | 478 kts | 308° |
| 2026-04-24 01:16 | 27.68379 | 79.66975 | 35754 ft | 477 kts | 308° |
| 2026-04-24 01:16 | 27.72887 | 79.61502 | 35731 ft | 478 kts | 313° |
| 2026-04-24 01:17 | 27.77657 | 79.56247 | 35756 ft | 478 kts | 314° |
| 2026-04-24 01:17 | 27.82420 | 79.50997 | 35755 ft | 478 kts | 313° |
| 2026-04-24 01:18 | 27.87117 | 79.45749 | 35754 ft | 477 kts | 313° |
| 2026-04-24 01:18 | 27.91827 | 79.40449 | 35759 ft | 477 kts | 313° |
| 2026-04-24 01:19 | 27.96538 | 79.35139 | 35757 ft | 477 kts | 313° |
| 2026-04-24 01:19 | 28.01243 | 79.29831 | 35758 ft | 477 kts | 313° |
| 2026-04-24 01:20 | 28.05915 | 79.24554 | 35756 ft | 477 kts | 313° |
| 2026-04-24 01:20 | 28.10619 | 79.19237 | 35756 ft | 477 kts | 313° |
| 2026-04-24 01:21 | 28.15314 | 79.13920 | 35759 ft | 477 kts | 313° |
| 2026-04-24 01:21 | 28.20008 | 79.08599 | 35757 ft | 477 kts | 313° |
| 2026-04-24 01:22 | 28.24679 | 79.03297 | 35766 ft | 477 kts | 313° |
| 2026-04-24 01:22 | 28.29377 | 78.97957 | 35754 ft | 478 kts | 313° |
| 2026-04-24 01:23 | 28.34071 | 78.92614 | 35766 ft | 477 kts | 313° |
| 2026-04-24 01:23 | 28.38759 | 78.87269 | 35767 ft | 477 kts | 313° |
| 2026-04-24 01:24 | 28.43425 | 78.81945 | 35763 ft | 477 kts | 313° |
| 2026-04-24 01:24 | 28.48257 | 78.76739 | 35751 ft | 479 kts | 320° |
| 2026-04-24 01:25 | 28.53568 | 78.72150 | 35762 ft | 480 kts | 321° |
| 2026-04-24 01:25 | 28.58871 | 78.67616 | 35782 ft | 479 kts | 321° |
| 2026-04-24 01:26 | 28.64195 | 78.63019 | 35780 ft | 479 kts | 320° |
| 2026-04-24 01:26 | 28.69493 | 78.58410 | 35774 ft | 479 kts | 320° |
| 2026-04-24 01:27 | 28.74794 | 78.53786 | 35761 ft | 479 kts | 320° |
| 2026-04-24 01:27 | 28.80089 | 78.49161 | 35774 ft | 479 kts | 320° |
| 2026-04-24 01:28 | 28.84486 | 78.45318 | 35786 ft | 479 kts | 320° |
| 2026-04-24 01:28 | 28.90640 | 78.39933 | 35785 ft | 479 kts | 320° |
| 2026-04-24 01:29 | 28.95032 | 78.36084 | 35782 ft | 479 kts | 320° |
| 2026-04-24 01:29 | 29.00323 | 78.31443 | 35779 ft | 479 kts | 320° |
| 2026-04-24 01:30 | 29.05608 | 78.26799 | 35779 ft | 479 kts | 320° |
| 2026-04-24 01:30 | 29.10862 | 78.22178 | 35794 ft | 479 kts | 320° |
| 2026-04-24 01:31 | 29.16147 | 78.17523 | 35781 ft | 479 kts | 320° |
| 2026-04-24 01:31 | 29.21427 | 78.12866 | 35784 ft | 479 kts | 320° |
| 2026-04-24 01:32 | 29.26713 | 78.08197 | 35776 ft | 479 kts | 320° |
| 2026-04-24 01:32 | 29.31970 | 78.03548 | 35782 ft | 480 kts | 320° |
| 2026-04-24 01:33 | 29.37262 | 77.98862 | 35780 ft | 480 kts | 320° |
| 2026-04-24 01:33 | 29.42550 | 77.94173 | 35789 ft | 480 kts | 320° |
| 2026-04-24 01:34 | 29.47831 | 77.89483 | 35775 ft | 480 kts | 320° |
| 2026-04-24 01:34 | 29.53087 | 77.84810 | 35776 ft | 480 kts | 320° |
| 2026-04-24 01:35 | 29.58362 | 77.80113 | 35777 ft | 480 kts | 320° |
| 2026-04-24 01:35 | 29.63638 | 77.75410 | 35774 ft | 480 kts | 320° |
| 2026-04-24 01:36 | 29.68915 | 77.70698 | 35773 ft | 480 kts | 320° |
| 2026-04-24 01:36 | 29.74182 | 77.65989 | 35775 ft | 479 kts | 320° |
| 2026-04-24 01:37 | 29.79454 | 77.61269 | 35777 ft | 479 kts | 320° |
| 2026-04-24 01:37 | 29.84718 | 77.56549 | 35776 ft | 479 kts | 321° |
| 2026-04-24 01:38 | 29.89950 | 77.51852 | 35772 ft | 479 kts | 321° |
| 2026-04-24 01:38 | 29.95212 | 77.47122 | 35769 ft | 478 kts | 321° |
| 2026-04-24 01:39 | 30.00651 | 77.42707 | 35771 ft | 479 kts | 329° |
| 2026-04-24 01:39 | 30.06575 | 77.39272 | 35774 ft | 479 kts | 333° |
| 2026-04-24 01:40 | 30.12561 | 77.35872 | 35770 ft | 479 kts | 332° |
| 2026-04-24 01:40 | 30.18521 | 77.32426 | 35770 ft | 479 kts | 332° |
| 2026-04-24 01:41 | 30.24468 | 77.28963 | 35775 ft | 478 kts | 332° |
| 2026-04-24 01:41 | 30.30419 | 77.25493 | 35777 ft | 478 kts | 332° |
| 2026-04-24 01:42 | 30.36319 | 77.22003 | 35791 ft | 477 kts | 328° |
| 2026-04-24 01:42 | 30.41562 | 77.17269 | 35782 ft | 475 kts | 314° |
| 2026-04-24 01:43 | 30.45698 | 77.11406 | 35785 ft | 473 kts | 306° |
| 2026-04-24 01:43 | 30.49617 | 77.05274 | 35764 ft | 472 kts | 306° |
| 2026-04-24 01:44 | 30.53569 | 76.99169 | 35772 ft | 472 kts | 307° |
| 2026-04-24 01:44 | 30.57532 | 76.93095 | 35760 ft | 472 kts | 307° |
| 2026-04-24 01:45 | 30.61501 | 76.87007 | 35775 ft | 472 kts | 307° |
| 2026-04-24 01:45 | 30.65436 | 76.80958 | 35778 ft | 471 kts | 307° |
| 2026-04-24 01:46 | 30.68917 | 76.74522 | 35777 ft | 471 kts | 297° |
| 2026-04-24 01:46 | 30.71439 | 76.67499 | 35777 ft | 471 kts | 292° |
| 2026-04-24 01:47 | 30.73821 | 76.60405 | 35766 ft | 471 kts | 292° |
| 2026-04-24 01:47 | 30.76207 | 76.53361 | 35761 ft | 471 kts | 292° |
| 2026-04-24 01:48 | 30.78625 | 76.46267 | 35753 ft | 471 kts | 292° |
| 2026-04-24 01:48 | 30.81029 | 76.39220 | 35755 ft | 471 kts | 292° |
| 2026-04-24 01:49 | 30.83443 | 76.32126 | 35752 ft | 471 kts | 292° |
| 2026-04-24 01:49 | 30.85848 | 76.25039 | 35748 ft | 471 kts | 292° |
| 2026-04-24 01:50 | 30.88253 | 76.17940 | 35752 ft | 470 kts | 292° |
| 2026-04-24 01:50 | 30.90652 | 76.10840 | 35754 ft | 470 kts | 292° |
| 2026-04-24 01:51 | 30.93034 | 76.03777 | 35751 ft | 470 kts | 292° |
| 2026-04-24 01:51 | 30.95420 | 75.96685 | 35757 ft | 470 kts | 292° |
| 2026-04-24 01:52 | 30.97803 | 75.89591 | 35754 ft | 470 kts | 292° |
| 2026-04-24 01:52 | 31.00182 | 75.82490 | 35753 ft | 470 kts | 292° |
| 2026-04-24 01:53 | 31.02558 | 75.75384 | 35762 ft | 470 kts | 292° |
| 2026-04-24 01:53 | 31.04927 | 75.68283 | 35756 ft | 469 kts | 291° |
| 2026-04-24 01:54 | 31.07279 | 75.61220 | 35754 ft | 469 kts | 291° |
| 2026-04-24 01:54 | 31.09635 | 75.54129 | 35751 ft | 468 kts | 291° |
| 2026-04-24 01:55 | 31.11937 | 75.47017 | 35750 ft | 468 kts | 288° |
| 2026-04-24 01:55 | 31.13803 | 75.39739 | 35765 ft | 467 kts | 287° |
| 2026-04-24 01:56 | 31.15622 | 75.32459 | 35765 ft | 467 kts | 287° |
| 2026-04-24 01:56 | 31.17443 | 75.25218 | 35762 ft | 467 kts | 287° |
| 2026-04-24 01:57 | 31.19280 | 75.17943 | 35758 ft | 466 kts | 287° |
| 2026-04-24 01:57 | 31.21117 | 75.10666 | 35775 ft | 466 kts | 286° |
| 2026-04-24 01:58 | 31.22946 | 75.03398 | 35765 ft | 465 kts | 286° |
| 2026-04-24 01:58 | 31.24754 | 74.96190 | 35766 ft | 464 kts | 286° |
| 2026-04-24 01:59 | 31.26566 | 74.88947 | 35765 ft | 463 kts | 286° |
| 2026-04-24 01:59 | 31.28370 | 74.81715 | 35769 ft | 462 kts | 286° |
| 2026-04-24 02:00 | 31.30169 | 74.74489 | 35771 ft | 462 kts | 286° |
| 2026-04-24 02:00 | 31.31951 | 74.67309 | 35781 ft | 462 kts | 285° |
| 2026-04-24 02:01 | 31.33738 | 74.60095 | 35789 ft | 462 kts | 285° |
| 2026-04-24 02:01 | 31.35374 | 74.52821 | 35792 ft | 462 kts | 282° |
| 2026-04-24 02:02 | 31.36755 | 74.45477 | 35798 ft | 462 kts | 282° |
| 2026-04-24 02:02 | 31.38129 | 74.38111 | 35803 ft | 462 kts | 282° |
| 2026-04-24 02:03 | 31.40203 | 74.27133 | 35800 ft | 462 kts | 282° |
| 2026-04-24 02:03 | 31.41590 | 74.19785 | 35794 ft | 461 kts | 282° |
| 2026-04-24 02:04 | 31.42969 | 74.12453 | 35793 ft | 461 kts | 282° |
| 2026-04-24 02:04 | 31.44264 | 74.05116 | 35779 ft | 460 kts | 277° |
| 2026-04-24 02:05 | 31.44572 | 73.97693 | 35789 ft | 459 kts | 268° |
| 2026-04-24 02:05 | 31.43923 | 73.90255 | 35792 ft | 459 kts | 263° |
| 2026-04-24 02:06 | 31.43136 | 73.82832 | 35788 ft | 459 kts | 264° |
| 2026-04-24 02:06 | 31.42389 | 73.75405 | 35790 ft | 459 kts | 264° |
| 2026-04-24 02:07 | 31.41637 | 73.67978 | 35789 ft | 459 kts | 264° |
| 2026-04-24 02:07 | 31.40872 | 73.60600 | 35789 ft | 459 kts | 264° |
| 2026-04-24 02:08 | 31.40097 | 73.53163 | 35791 ft | 459 kts | 264° |
| 2026-04-24 02:08 | 31.39321 | 73.45736 | 35792 ft | 459 kts | 264° |
| 2026-04-24 02:09 | 31.38544 | 73.38336 | 35792 ft | 460 kts | 264° |
| 2026-04-24 02:09 | 31.37761 | 73.30911 | 35788 ft | 460 kts | 264° |
| 2026-04-24 02:10 | 31.36972 | 73.23481 | 35791 ft | 460 kts | 263° |
| 2026-04-24 02:10 | 31.36178 | 73.16038 | 35794 ft | 460 kts | 263° |
| 2026-04-24 02:11 | 31.35379 | 73.08600 | 35803 ft | 460 kts | 263° |
| 2026-04-24 02:11 | 31.34583 | 73.01210 | 35802 ft | 460 kts | 263° |
| 2026-04-24 02:12 | 31.33775 | 72.93762 | 35804 ft | 461 kts | 263° |
| 2026-04-24 02:12 | 31.33100 | 72.87544 | 35799 ft | 460 kts | 263° |
| 2026-04-24 02:13 | 31.32295 | 72.80159 | 35795 ft | 460 kts | 263° |
| 2026-04-24 02:13 | 31.31479 | 72.72719 | 35796 ft | 460 kts | 263° |
| 2026-04-24 02:14 | 31.30661 | 72.65297 | 35795 ft | 459 kts | 263° |
| 2026-04-24 02:14 | 31.29841 | 72.57891 | 35795 ft | 459 kts | 262° |
| 2026-04-24 02:15 | 31.29016 | 72.50487 | 35790 ft | 458 kts | 262° |
| 2026-04-24 02:15 | 31.28194 | 72.43142 | 35793 ft | 458 kts | 262° |
| 2026-04-24 02:16 | 31.27372 | 72.35766 | 35786 ft | 456 kts | 264° |
| 2026-04-24 02:16 | 31.27344 | 72.32063 | 35796 ft | 457 kts | 275° |
| 2026-04-24 02:16 | 31.27915 | 72.28399 | 35806 ft | 458 kts | 283° |
| 2026-04-24 02:17 | 31.30424 | 72.21537 | 35799 ft | 461 kts | 297° |
| 2026-04-24 02:17 | 31.33561 | 72.14983 | 35792 ft | 462 kts | 297° |
| 2026-04-24 02:18 | 31.36653 | 72.08441 | 35809 ft | 463 kts | 296° |
| 2026-04-24 02:18 | 31.39739 | 72.01800 | 35795 ft | 464 kts | 296° |
| 2026-04-24 02:19 | 31.42813 | 71.95138 | 35801 ft | 464 kts | 296° |
| 2026-04-24 02:19 | 31.45879 | 71.88481 | 35804 ft | 464 kts | 297° |
| 2026-04-24 02:20 | 31.48928 | 71.81855 | 35799 ft | 464 kts | 297° |
| 2026-04-24 02:20 | 31.51980 | 71.75213 | 35802 ft | 463 kts | 297° |
| 2026-04-24 02:21 | 31.55028 | 71.68565 | 35818 ft | 462 kts | 297° |
| 2026-04-24 02:21 | 31.58066 | 71.61928 | 35806 ft | 461 kts | 296° |
| 2026-04-24 02:22 | 31.61092 | 71.55301 | 35805 ft | 460 kts | 296° |
| 2026-04-24 02:22 | 31.64083 | 71.48731 | 35805 ft | 458 kts | 296° |
| 2026-04-24 02:23 | 31.67078 | 71.42137 | 35806 ft | 457 kts | 296° |
| 2026-04-24 02:23 | 31.70067 | 71.35544 | 35808 ft | 456 kts | 296° |
| 2026-04-24 02:24 | 31.73054 | 71.28945 | 35809 ft | 456 kts | 296° |
| 2026-04-24 02:24 | 31.76017 | 71.22390 | 35819 ft | 456 kts | 296° |
| 2026-04-24 02:25 | 31.78992 | 71.15793 | 35812 ft | 456 kts | 296° |
| 2026-04-24 02:25 | 31.81968 | 71.09184 | 35810 ft | 456 kts | 296° |
| 2026-04-24 02:26 | 31.84921 | 71.02612 | 35816 ft | 457 kts | 296° |
| 2026-04-24 02:26 | 31.87893 | 70.95989 | 35815 ft | 457 kts | 296° |
| 2026-04-24 02:27 | 31.90898 | 70.89392 | 35819 ft | 458 kts | 298° |
| 2026-04-24 02:27 | 31.94609 | 70.83282 | 35836 ft | 460 kts | 305° |
| 2026-04-24 02:28 | 31.98560 | 70.77350 | 35837 ft | 460 kts | 305° |
| 2026-04-24 02:28 | 32.02490 | 70.71395 | 35831 ft | 460 kts | 304° |
| 2026-04-24 02:29 | 32.06401 | 70.65422 | 35831 ft | 460 kts | 304° |
| 2026-04-24 02:29 | 32.10304 | 70.59442 | 35835 ft | 460 kts | 304° |
| 2026-04-24 02:30 | 32.14181 | 70.53495 | 35833 ft | 460 kts | 304° |
| 2026-04-24 02:30 | 32.18083 | 70.47499 | 35848 ft | 459 kts | 304° |
| 2026-04-24 02:31 | 32.21978 | 70.41507 | 35851 ft | 459 kts | 304° |
| 2026-04-24 02:31 | 32.25841 | 70.35555 | 35830 ft | 459 kts | 304° |
| 2026-04-24 02:32 | 32.29719 | 70.29568 | 35864 ft | 459 kts | 304° |
| 2026-04-24 02:32 | 32.33591 | 70.23582 | 35878 ft | 458 kts | 304° |
| 2026-04-24 02:33 | 32.37466 | 70.17586 | 35898 ft | 458 kts | 304° |
| 2026-04-24 02:33 | 32.41404 | 70.11661 | 35896 ft | 457 kts | 305° |
| 2026-04-24 02:34 | 32.45350 | 70.05790 | 35920 ft | 454 kts | 305° |
| 2026-04-24 02:34 | 32.49274 | 69.99926 | 35936 ft | 453 kts | 305° |
| 2026-04-24 02:35 | 32.53173 | 69.94070 | 35940 ft | 451 kts | 305° |
| 2026-04-24 02:35 | 32.57056 | 69.88225 | 35990 ft | 451 kts | 304° |
| 2026-04-24 02:36 | 32.60915 | 69.82407 | 35981 ft | 451 kts | 304° |
| 2026-04-24 02:36 | 32.64784 | 69.76567 | 36005 ft | 449 kts | 304° |
| 2026-04-24 02:37 | 32.68641 | 69.70733 | 36001 ft | 449 kts | 304° |
| 2026-04-24 02:37 | 32.72497 | 69.64893 | 36021 ft | 448 kts | 304° |
| 2026-04-24 02:38 | 32.76345 | 69.59057 | 36019 ft | 448 kts | 304° |
| 2026-04-24 02:38 | 32.80164 | 69.53256 | 36021 ft | 448 kts | 304° |
| 2026-04-24 02:39 | 32.84003 | 69.47412 | 36033 ft | 448 kts | 303° |
| 2026-04-24 02:39 | 32.87844 | 69.41558 | 36045 ft | 449 kts | 303° |
| 2026-04-24 02:40 | 32.91672 | 69.35697 | 36047 ft | 451 kts | 303° |
| 2026-04-24 02:40 | 32.95522 | 69.29790 | 36045 ft | 451 kts | 303° |
| 2026-04-24 02:41 | 32.99369 | 69.23879 | 36065 ft | 452 kts | 303° |
| 2026-04-24 02:41 | 33.03226 | 69.17945 | 36066 ft | 453 kts | 303° |
| 2026-04-24 02:42 | 33.07084 | 69.11999 | 36068 ft | 454 kts | 303° |
| 2026-04-24 02:42 | 33.10948 | 69.06033 | 36067 ft | 454 kts | 303° |
| 2026-04-24 02:43 | 33.14783 | 69.00103 | 36078 ft | 454 kts | 303° |
| 2026-04-24 02:43 | 33.18648 | 68.94117 | 36069 ft | 455 kts | 303° |
| 2026-04-24 02:44 | 33.22509 | 68.88127 | 36064 ft | 455 kts | 303° |
| 2026-04-24 02:44 | 33.26373 | 68.82124 | 36065 ft | 454 kts | 303° |
| 2026-04-24 02:45 | 33.30355 | 68.76235 | 36064 ft | 455 kts | 306° |
| 2026-04-24 02:45 | 33.34457 | 68.70544 | 36064 ft | 454 kts | 306° |
| 2026-04-24 02:46 | 33.38587 | 68.64807 | 36077 ft | 454 kts | 306° |
| 2026-04-24 02:46 | 33.42702 | 68.59041 | 36071 ft | 454 kts | 305° |
| 2026-04-24 02:47 | 33.46799 | 68.53279 | 36078 ft | 454 kts | 305° |
| 2026-04-24 02:47 | 33.50863 | 68.47554 | 36084 ft | 454 kts | 305° |
| 2026-04-24 02:48 | 33.54965 | 68.41771 | 36095 ft | 454 kts | 305° |
| 2026-04-24 02:48 | 33.58990 | 68.35936 | 36103 ft | 454 kts | 304° |
| 2026-04-24 02:49 | 33.62982 | 68.30051 | 36132 ft | 454 kts | 304° |
| 2026-04-24 02:49 | 33.66964 | 68.24188 | 36113 ft | 455 kts | 304° |
| 2026-04-24 02:50 | 33.70969 | 68.18295 | 36134 ft | 455 kts | 304° |
| 2026-04-24 02:50 | 33.74973 | 68.12397 | 36196 ft | 456 kts | 304° |
| 2026-04-24 02:51 | 33.78990 | 68.06476 | 36158 ft | 456 kts | 304° |
| 2026-04-24 02:51 | 33.82998 | 68.00557 | 36166 ft | 456 kts | 304° |
| 2026-04-24 02:52 | 33.87007 | 67.94623 | 36164 ft | 456 kts | 304° |
| 2026-04-24 02:52 | 33.91009 | 67.88690 | 36173 ft | 456 kts | 304° |
| 2026-04-24 02:53 | 33.94986 | 67.82784 | 36187 ft | 456 kts | 304° |
| 2026-04-24 02:53 | 33.98977 | 67.76846 | 36182 ft | 455 kts | 304° |
| 2026-04-24 02:54 | 34.02930 | 67.70884 | 36184 ft | 454 kts | 303° |
| 2026-04-24 02:54 | 34.06868 | 67.64913 | 36184 ft | 454 kts | 303° |
| 2026-04-24 02:55 | 34.10796 | 67.58953 | 36190 ft | 454 kts | 303° |
| 2026-04-24 02:55 | 34.14736 | 67.52971 | 36205 ft | 455 kts | 303° |
| 2026-04-24 02:56 | 34.18651 | 67.47020 | 36197 ft | 454 kts | 303° |
| 2026-04-24 02:56 | 34.21940 | 67.42014 | 36186 ft | 453 kts | 303° |
| 2026-04-24 02:57 | 34.26475 | 67.35093 | 36194 ft | 452 kts | 303° |
| 2026-04-24 02:57 | 34.29722 | 67.30130 | 36202 ft | 452 kts | 303° |
| 2026-04-24 02:58 | 34.34266 | 67.23176 | 36203 ft | 452 kts | 303° |
| 2026-04-24 02:58 | 34.37535 | 67.18164 | 36204 ft | 452 kts | 303° |
| 2026-04-24 02:59 | 34.41430 | 67.12185 | 36201 ft | 452 kts | 303° |
| 2026-04-24 02:59 | 34.45293 | 67.06242 | 36204 ft | 451 kts | 303° |
| 2026-04-24 03:00 | 34.49170 | 67.00268 | 36199 ft | 450 kts | 303° |
| 2026-04-24 03:00 | 34.53043 | 66.94292 | 36201 ft | 450 kts | 303° |
| 2026-04-24 03:01 | 34.56909 | 66.88308 | 36214 ft | 450 kts | 303° |
| 2026-04-24 03:01 | 34.60745 | 66.82346 | 36196 ft | 450 kts | 303° |
| 2026-04-24 03:02 | 34.64596 | 66.76349 | 36210 ft | 449 kts | 303° |
| 2026-04-24 03:02 | 34.68438 | 66.70354 | 36198 ft | 449 kts | 302° |
| 2026-04-24 03:03 | 34.72273 | 66.64364 | 36185 ft | 449 kts | 302° |
| 2026-04-24 03:03 | 34.76110 | 66.58357 | 36196 ft | 450 kts | 302° |
| 2026-04-24 03:04 | 34.79962 | 66.52320 | 36194 ft | 452 kts | 302° |
| 2026-04-24 03:04 | 34.83800 | 66.46293 | 36191 ft | 453 kts | 302° |
| 2026-04-24 03:05 | 34.87672 | 66.40203 | 36194 ft | 455 kts | 301° |
| 2026-04-24 03:05 | 34.91555 | 66.34085 | 36193 ft | 456 kts | 301° |
| 2026-04-24 03:06 | 34.95441 | 66.27951 | 36184 ft | 456 kts | 301° |
| 2026-04-24 03:06 | 34.99287 | 66.21856 | 36182 ft | 455 kts | 301° |
| 2026-04-24 03:07 | 35.03136 | 66.15700 | 36179 ft | 456 kts | 301° |
| 2026-04-24 03:07 | 35.06992 | 66.09518 | 36176 ft | 457 kts | 300° |
| 2026-04-24 03:08 | 35.12757 | 66.00265 | 36155 ft | 455 kts | 300° |
| 2026-04-24 03:09 | 35.16582 | 65.94115 | 36154 ft | 453 kts | 300° |
| 2026-04-24 03:09 | 35.20371 | 65.88009 | 36143 ft | 451 kts | 301° |
| 2026-04-24 03:10 | 35.24159 | 65.81896 | 36153 ft | 450 kts | 301° |
| 2026-04-24 03:10 | 35.27938 | 65.75785 | 36143 ft | 449 kts | 301° |
| 2026-04-24 03:11 | 35.31682 | 65.69723 | 36108 ft | 447 kts | 301° |
| 2026-04-24 03:11 | 35.35429 | 65.63648 | 36113 ft | 447 kts | 301° |
| 2026-04-24 03:12 | 35.39185 | 65.57540 | 36142 ft | 449 kts | 301° |
| 2026-04-24 03:12 | 35.42943 | 65.51412 | 36089 ft | 453 kts | 301° |
| 2026-04-24 03:13 | 35.46753 | 65.45201 | 36091 ft | 455 kts | 301° |
| 2026-04-24 03:13 | 35.50562 | 65.38980 | 36074 ft | 456 kts | 301° |
| 2026-04-24 03:14 | 35.54375 | 65.32739 | 36074 ft | 457 kts | 301° |
| 2026-04-24 03:14 | 35.58163 | 65.26530 | 36056 ft | 456 kts | 302° |
| 2026-04-24 03:15 | 35.61958 | 65.20302 | 36049 ft | 453 kts | 301° |
| 2026-04-24 03:15 | 35.65721 | 65.14110 | 36027 ft | 451 kts | 301° |
| 2026-04-24 03:16 | 35.69464 | 65.07940 | 36012 ft | 448 kts | 301° |
| 2026-04-24 03:16 | 35.73159 | 65.01838 | 36029 ft | 446 kts | 301° |
| 2026-04-24 03:17 | 35.76860 | 64.95713 | 36005 ft | 445 kts | 301° |
| 2026-04-24 03:17 | 35.80552 | 64.89592 | 36004 ft | 445 kts | 301° |
| 2026-04-24 03:18 | 35.84250 | 64.83453 | 35988 ft | 446 kts | 301° |
| 2026-04-24 03:18 | 35.87947 | 64.77304 | 35981 ft | 445 kts | 301° |
| 2026-04-24 03:19 | 35.91636 | 64.71159 | 35976 ft | 446 kts | 301° |
| 2026-04-24 03:19 | 35.95305 | 64.65034 | 35967 ft | 446 kts | 301° |
| 2026-04-24 03:20 | 35.99000 | 64.58856 | 35978 ft | 447 kts | 301° |
| 2026-04-24 03:20 | 36.02691 | 64.52672 | 35970 ft | 447 kts | 301° |
| 2026-04-24 03:21 | 36.06391 | 64.46463 | 35967 ft | 448 kts | 301° |
| 2026-04-24 03:21 | 36.10086 | 64.40251 | 35974 ft | 448 kts | 301° |
| 2026-04-24 03:22 | 36.13778 | 64.34033 | 35970 ft | 448 kts | 301° |
| 2026-04-24 03:22 | 36.17450 | 64.27854 | 35975 ft | 448 kts | 302° |
| 2026-04-24 03:23 | 36.21267 | 64.21726 | 35977 ft | 449 kts | 303° |
| 2026-04-24 03:23 | 36.25125 | 64.15629 | 35963 ft | 449 kts | 303° |
| 2026-04-24 03:24 | 36.28970 | 64.09516 | 35964 ft | 449 kts | 302° |
| 2026-04-24 03:24 | 36.32776 | 64.03428 | 35962 ft | 449 kts | 302° |
| 2026-04-24 03:25 | 36.36596 | 63.97295 | 35956 ft | 449 kts | 302° |
| 2026-04-24 03:25 | 36.40413 | 63.91154 | 35967 ft | 449 kts | 302° |
| 2026-04-24 03:26 | 36.44234 | 63.85000 | 35959 ft | 449 kts | 302° |
| 2026-04-24 03:26 | 36.48051 | 63.78840 | 35955 ft | 449 kts | 302° |
| 2026-04-24 03:27 | 36.51837 | 63.72718 | 35961 ft | 449 kts | 302° |
| 2026-04-24 03:27 | 36.55650 | 63.66542 | 35963 ft | 450 kts | 302° |
| 2026-04-24 03:28 | 36.59458 | 63.60363 | 35953 ft | 450 kts | 302° |
| 2026-04-24 03:28 | 36.63268 | 63.54170 | 35951 ft | 449 kts | 302° |
| 2026-04-24 03:29 | 36.67066 | 63.47984 | 35947 ft | 449 kts | 302° |
| 2026-04-24 03:29 | 36.70858 | 63.41797 | 35970 ft | 449 kts | 302° |
| 2026-04-24 03:30 | 36.74622 | 63.35644 | 35948 ft | 449 kts | 302° |
| 2026-04-24 03:30 | 36.78415 | 63.29433 | 35944 ft | 448 kts | 302° |
| 2026-04-24 03:31 | 36.82194 | 63.23233 | 35941 ft | 448 kts | 302° |
| 2026-04-24 03:31 | 36.85964 | 63.17036 | 35960 ft | 448 kts | 302° |
| 2026-04-24 03:32 | 36.89708 | 63.10870 | 35931 ft | 448 kts | 302° |
| 2026-04-24 03:32 | 36.93472 | 63.04662 | 35944 ft | 447 kts | 302° |
| 2026-04-24 03:33 | 36.97230 | 62.98451 | 35939 ft | 447 kts | 302° |
| 2026-04-24 03:33 | 37.00988 | 62.92228 | 35935 ft | 447 kts | 302° |
| 2026-04-24 03:34 | 37.04712 | 62.86050 | 35937 ft | 448 kts | 302° |
| 2026-04-24 03:34 | 37.08469 | 62.79807 | 35938 ft | 448 kts | 302° |
| 2026-04-24 03:35 | 37.12216 | 62.73568 | 35931 ft | 448 kts | 302° |
| 2026-04-24 03:35 | 37.15941 | 62.67353 | 35932 ft | 448 kts | 301° |
| 2026-04-24 03:36 | 37.19690 | 62.61088 | 35927 ft | 448 kts | 301° |
| 2026-04-24 03:36 | 37.23428 | 62.54829 | 35920 ft | 448 kts | 301° |
| 2026-04-24 03:37 | 37.27165 | 62.48559 | 35935 ft | 448 kts | 301° |
| 2026-04-24 03:37 | 37.30893 | 62.42295 | 35933 ft | 448 kts | 301° |
| 2026-04-24 03:38 | 37.34596 | 62.36060 | 35937 ft | 448 kts | 301° |
| 2026-04-24 03:38 | 37.38320 | 62.29777 | 35935 ft | 448 kts | 301° |
| 2026-04-24 03:39 | 37.42045 | 62.23481 | 35933 ft | 447 kts | 301° |
| 2026-04-24 03:39 | 37.45756 | 62.17197 | 35931 ft | 447 kts | 301° |
| 2026-04-24 03:40 | 37.49468 | 62.10897 | 35948 ft | 447 kts | 301° |
| 2026-04-24 03:40 | 37.53154 | 62.04632 | 35943 ft | 448 kts | 301° |
| 2026-04-24 03:41 | 37.56862 | 61.98316 | 35939 ft | 448 kts | 301° |
| 2026-04-24 03:41 | 37.60546 | 61.92031 | 35951 ft | 447 kts | 301° |
| 2026-04-24 03:42 | 37.63797 | 61.85405 | 35933 ft | 441 kts | 292° |
| 2026-04-24 03:42 | 37.66063 | 61.79647 | 35930 ft | 441 kts | 292° |
| 2026-04-24 03:43 | 37.68807 | 61.72711 | 35930 ft | 441 kts | 292° |
| 2026-04-24 03:43 | 37.71559 | 61.65783 | 35927 ft | 441 kts | 292° |
| 2026-04-24 03:44 | 37.74312 | 61.58860 | 35944 ft | 441 kts | 292° |
| 2026-04-24 03:44 | 37.77051 | 61.51958 | 35926 ft | 441 kts | 292° |
| 2026-04-24 03:45 | 37.79801 | 61.45015 | 35920 ft | 442 kts | 292° |
| 2026-04-24 03:45 | 37.82553 | 61.38050 | 35925 ft | 442 kts | 292° |
| 2026-04-24 03:46 | 37.85298 | 61.31086 | 35930 ft | 442 kts | 292° |
| 2026-04-24 03:46 | 37.88039 | 61.24116 | 35933 ft | 442 kts | 292° |
| 2026-04-24 03:47 | 37.90758 | 61.17187 | 35933 ft | 442 kts | 292° |
| 2026-04-24 03:47 | 37.93490 | 61.10211 | 35917 ft | 441 kts | 292° |
| 2026-04-24 03:48 | 37.96213 | 61.03241 | 35917 ft | 441 kts | 292° |
| 2026-04-24 03:48 | 37.98937 | 60.96251 | 35913 ft | 441 kts | 292° |
| 2026-04-24 03:49 | 38.01650 | 60.89275 | 35920 ft | 442 kts | 292° |
| 2026-04-24 03:49 | 38.04355 | 60.82303 | 35910 ft | 442 kts | 292° |
| 2026-04-24 03:50 | 38.07070 | 60.75291 | 35912 ft | 442 kts | 292° |
| 2026-04-24 03:50 | 38.09780 | 60.68274 | 35902 ft | 442 kts | 292° |
| 2026-04-24 03:51 | 38.12469 | 60.61299 | 35919 ft | 443 kts | 292° |
| 2026-04-24 03:51 | 38.15179 | 60.54250 | 35908 ft | 443 kts | 292° |
| 2026-04-24 03:52 | 38.17879 | 60.47211 | 35892 ft | 443 kts | 292° |
| 2026-04-24 03:52 | 38.20581 | 60.40154 | 35892 ft | 443 kts | 292° |
| 2026-04-24 03:53 | 38.23270 | 60.33111 | 35919 ft | 442 kts | 292° |
| 2026-04-24 03:53 | 38.25940 | 60.26101 | 35893 ft | 443 kts | 292° |
| 2026-04-24 03:54 | 38.28628 | 60.19031 | 35890 ft | 443 kts | 292° |
| 2026-04-24 03:54 | 38.31306 | 60.11969 | 35891 ft | 442 kts | 292° |
| 2026-04-24 03:55 | 38.33978 | 60.04907 | 35886 ft | 442 kts | 291° |
| 2026-04-24 03:55 | 38.36628 | 59.97886 | 35893 ft | 442 kts | 291° |
| 2026-04-24 03:56 | 38.39300 | 59.90789 | 35887 ft | 443 kts | 291° |
| 2026-04-24 03:56 | 38.41967 | 59.83693 | 35881 ft | 443 kts | 291° |
| 2026-04-24 03:57 | 38.44607 | 59.76648 | 35882 ft | 443 kts | 291° |
| 2026-04-24 03:57 | 38.47262 | 59.69549 | 35892 ft | 443 kts | 291° |
| 2026-04-24 03:58 | 38.49915 | 59.62437 | 35878 ft | 443 kts | 291° |
| 2026-04-24 03:58 | 38.52564 | 59.55318 | 35867 ft | 443 kts | 291° |
| 2026-04-24 03:59 | 38.55185 | 59.48260 | 35867 ft | 443 kts | 291° |
| 2026-04-24 03:59 | 38.57826 | 59.41134 | 35868 ft | 443 kts | 291° |
| 2026-04-24 04:00 | 38.60480 | 59.34018 | 35869 ft | 444 kts | 292° |
| 2026-04-24 04:00 | 38.63292 | 59.26977 | 35864 ft | 444 kts | 294° |
| 2026-04-24 04:01 | 38.66124 | 59.19962 | 35863 ft | 444 kts | 293° |
| 2026-04-24 04:01 | 38.68934 | 59.12927 | 35859 ft | 443 kts | 293° |
| 2026-04-24 04:02 | 38.71713 | 59.05919 | 35865 ft | 443 kts | 293° |
| 2026-04-24 04:02 | 38.74498 | 58.98873 | 35855 ft | 443 kts | 293° |
| 2026-04-24 04:03 | 38.77277 | 58.91828 | 35857 ft | 443 kts | 293° |
| 2026-04-24 04:03 | 38.80054 | 58.84775 | 35857 ft | 442 kts | 293° |
| 2026-04-24 04:04 | 38.82821 | 58.77728 | 35855 ft | 442 kts | 293° |
| 2026-04-24 04:04 | 38.85589 | 58.70663 | 35857 ft | 442 kts | 293° |
| 2026-04-24 04:05 | 38.88323 | 58.63636 | 35856 ft | 441 kts | 291° |
| 2026-04-24 04:05 | 38.90500 | 58.56300 | 35864 ft | 438 kts | 286° |
| 2026-04-24 04:06 | 38.92488 | 58.48897 | 35872 ft | 439 kts | 286° |
| 2026-04-24 04:06 | 38.94489 | 58.41489 | 35858 ft | 439 kts | 286° |
| 2026-04-24 04:07 | 38.96497 | 58.34071 | 35856 ft | 439 kts | 286° |
| 2026-04-24 04:07 | 38.98491 | 58.26703 | 35857 ft | 439 kts | 286° |
| 2026-04-24 04:08 | 39.00492 | 58.19285 | 35854 ft | 439 kts | 286° |
| 2026-04-24 04:08 | 39.02485 | 58.11874 | 35863 ft | 438 kts | 286° |
| 2026-04-24 04:09 | 39.04474 | 58.04455 | 35865 ft | 438 kts | 286° |
| 2026-04-24 04:09 | 39.06455 | 57.97047 | 35868 ft | 438 kts | 286° |
| 2026-04-24 04:10 | 39.08433 | 57.89626 | 35864 ft | 437 kts | 286° |
| 2026-04-24 04:10 | 39.10386 | 57.82274 | 35886 ft | 437 kts | 286° |
| 2026-04-24 04:11 | 39.13333 | 57.71146 | 35861 ft | 437 kts | 286° |
| 2026-04-24 04:11 | 39.15286 | 57.63743 | 35863 ft | 437 kts | 286° |
| 2026-04-24 04:12 | 39.17238 | 57.56324 | 35865 ft | 436 kts | 286° |
| 2026-04-24 04:12 | 39.19184 | 57.48903 | 35886 ft | 437 kts | 286° |
| 2026-04-24 04:13 | 39.21128 | 57.41469 | 35877 ft | 437 kts | 286° |
| 2026-04-24 04:13 | 39.23066 | 57.34033 | 35868 ft | 437 kts | 286° |
| 2026-04-24 04:14 | 39.24991 | 57.26629 | 35867 ft | 437 kts | 286° |
| 2026-04-24 04:14 | 39.26923 | 57.19175 | 35868 ft | 437 kts | 285° |
| 2026-04-24 04:15 | 39.28847 | 57.11726 | 35883 ft | 437 kts | 285° |
| 2026-04-24 04:15 | 39.30764 | 57.04282 | 35874 ft | 437 kts | 285° |
| 2026-04-24 04:16 | 39.32666 | 56.96876 | 35870 ft | 436 kts | 285° |
| 2026-04-24 04:16 | 39.34576 | 56.89419 | 35878 ft | 435 kts | 285° |
| 2026-04-24 04:17 | 39.36462 | 56.82034 | 35889 ft | 435 kts | 285° |
| 2026-04-24 04:17 | 39.38269 | 56.74580 | 35879 ft | 434 kts | 284° |
| 2026-04-24 04:18 | 39.39979 | 56.67076 | 35873 ft | 434 kts | 284° |
| 2026-04-24 04:18 | 39.41682 | 56.59591 | 35875 ft | 434 kts | 284° |
| 2026-04-24 04:19 | 39.43386 | 56.52143 | 35874 ft | 434 kts | 284° |
| 2026-04-24 04:19 | 39.45100 | 56.44651 | 35884 ft | 434 kts | 284° |
| 2026-04-24 04:20 | 39.46809 | 56.37157 | 35876 ft | 434 kts | 284° |
| 2026-04-24 04:20 | 39.48515 | 56.29655 | 35874 ft | 435 kts | 284° |
| 2026-04-24 04:21 | 39.50220 | 56.22125 | 35877 ft | 435 kts | 284° |
| 2026-04-24 04:21 | 39.51920 | 56.14595 | 35875 ft | 435 kts | 284° |
| 2026-04-24 04:22 | 39.53615 | 56.07060 | 35867 ft | 436 kts | 284° |
| 2026-04-24 04:22 | 39.55298 | 55.99556 | 35865 ft | 436 kts | 284° |
| 2026-04-24 04:23 | 39.56991 | 55.91987 | 35877 ft | 436 kts | 283° |
| 2026-04-24 04:23 | 39.58686 | 55.84406 | 36004 ft | 438 kts | 284° |
| 2026-04-24 04:24 | 39.59537 | 55.80616 | 36270 ft | 437 kts | 283° |
| 2026-04-24 04:24 | 39.60099 | 55.78111 | 36468 ft | 436 kts | 284° |
| 2026-04-24 04:24 | 39.60944 | 55.74337 | 36752 ft | 434 kts | 283° |
| 2026-04-24 04:24 | 39.61782 | 55.70586 | 37025 ft | 432 kts | 283° |
| 2026-04-24 04:25 | 39.62888 | 55.65624 | 37331 ft | 432 kts | 283° |
| 2026-04-24 04:25 | 39.63721 | 55.61876 | 37568 ft | 431 kts | 283° |
| 2026-04-24 04:25 | 39.64550 | 55.58140 | 37762 ft | 431 kts | 283° |
| 2026-04-24 04:25 | 39.65381 | 55.54385 | 37819 ft | 433 kts | 283° |
| 2026-04-24 04:26 | 39.66767 | 55.48116 | 37869 ft | 436 kts | 283° |
| 2026-04-24 04:26 | 39.68431 | 55.40572 | 37864 ft | 431 kts | 283° |
| 2026-04-24 04:27 | 39.70069 | 55.33111 | 37868 ft | 427 kts | 283° |
| 2026-04-24 04:27 | 39.71681 | 55.25697 | 37870 ft | 425 kts | 283° |
| 2026-04-24 04:28 | 39.73270 | 55.18351 | 37870 ft | 425 kts | 283° |
| 2026-04-24 04:28 | 39.74866 | 55.10961 | 37885 ft | 425 kts | 283° |
| 2026-04-24 04:29 | 39.76462 | 55.03544 | 37872 ft | 427 kts | 283° |
| 2026-04-24 04:29 | 39.78062 | 54.96082 | 37871 ft | 428 kts | 283° |
| 2026-04-24 04:30 | 39.79660 | 54.88607 | 37876 ft | 430 kts | 283° |
| 2026-04-24 04:30 | 39.81258 | 54.81110 | 37874 ft | 431 kts | 283° |
| 2026-04-24 04:31 | 39.82857 | 54.73596 | 37875 ft | 431 kts | 283° |
| 2026-04-24 04:31 | 39.84466 | 54.66115 | 37868 ft | 432 kts | 283° |
| 2026-04-24 04:32 | 39.86082 | 54.58591 | 37867 ft | 431 kts | 283° |
| 2026-04-24 04:32 | 39.87691 | 54.51057 | 37865 ft | 431 kts | 283° |
| 2026-04-24 04:33 | 39.89281 | 54.43583 | 37880 ft | 430 kts | 282° |
| 2026-04-24 04:33 | 39.90853 | 54.36074 | 37863 ft | 430 kts | 282° |
| 2026-04-24 04:34 | 39.92414 | 54.28556 | 37855 ft | 429 kts | 282° |
| 2026-04-24 04:34 | 39.93972 | 54.21039 | 37860 ft | 429 kts | 282° |
| 2026-04-24 04:35 | 39.95528 | 54.13508 | 37846 ft | 429 kts | 282° |
| 2026-04-24 04:35 | 39.97076 | 54.05993 | 37851 ft | 429 kts | 282° |
| 2026-04-24 04:36 | 39.98611 | 53.98512 | 37844 ft | 429 kts | 282° |
| 2026-04-24 04:36 | 40.00152 | 53.90978 | 37844 ft | 429 kts | 282° |
| 2026-04-24 04:37 | 40.01686 | 53.83449 | 37837 ft | 429 kts | 282° |
| 2026-04-24 04:37 | 40.03218 | 53.75906 | 37836 ft | 430 kts | 282° |
| 2026-04-24 04:38 | 40.04737 | 53.68397 | 37834 ft | 430 kts | 282° |
| 2026-04-24 04:38 | 40.06260 | 53.60839 | 37823 ft | 430 kts | 281° |
| 2026-04-24 04:39 | 40.07779 | 53.53278 | 37822 ft | 430 kts | 281° |
| 2026-04-24 04:39 | 40.09282 | 53.45767 | 37829 ft | 430 kts | 281° |
| 2026-04-24 04:40 | 40.10788 | 53.38210 | 37835 ft | 429 kts | 281° |
| 2026-04-24 04:40 | 40.12292 | 53.30641 | 37818 ft | 429 kts | 281° |
| 2026-04-24 04:41 | 40.13785 | 53.23095 | 37815 ft | 428 kts | 281° |
| 2026-04-24 04:41 | 40.15261 | 53.15603 | 37807 ft | 428 kts | 281° |
| 2026-04-24 04:42 | 40.16740 | 53.08074 | 37811 ft | 427 kts | 281° |
| 2026-04-24 04:42 | 40.18217 | 53.00527 | 37818 ft | 428 kts | 281° |
| 2026-04-24 04:43 | 40.19688 | 52.92982 | 37811 ft | 428 kts | 280° |
| 2026-04-24 04:43 | 40.21151 | 52.85448 | 37811 ft | 427 kts | 280° |
| 2026-04-24 04:44 | 40.22609 | 52.77910 | 37813 ft | 427 kts | 280° |
| 2026-04-24 04:44 | 40.24050 | 52.70436 | 37813 ft | 426 kts | 280° |
| 2026-04-24 04:45 | 40.25498 | 52.62898 | 37823 ft | 426 kts | 280° |
| 2026-04-24 04:45 | 40.26941 | 52.55364 | 37819 ft | 427 kts | 280° |
| 2026-04-24 04:46 | 40.28390 | 52.47821 | 37829 ft | 427 kts | 280° |
| 2026-04-24 04:46 | 40.29834 | 52.40281 | 37825 ft | 427 kts | 280° |
| 2026-04-24 04:47 | 40.31272 | 52.32741 | 37846 ft | 427 kts | 280° |
| 2026-04-24 04:47 | 40.32711 | 52.25164 | 37833 ft | 428 kts | 280° |
| 2026-04-24 04:48 | 40.34135 | 52.17636 | 37833 ft | 428 kts | 280° |
| 2026-04-24 04:48 | 40.35563 | 52.10056 | 37838 ft | 428 kts | 280° |
| 2026-04-24 04:49 | 40.36988 | 52.02463 | 37842 ft | 428 kts | 280° |
| 2026-04-24 04:49 | 40.38407 | 51.94874 | 37841 ft | 428 kts | 280° |
| 2026-04-24 04:50 | 40.39822 | 51.87272 | 37842 ft | 428 kts | 280° |
| 2026-04-24 04:50 | 40.41233 | 51.79670 | 37844 ft | 428 kts | 280° |
| 2026-04-24 04:51 | 40.42628 | 51.72114 | 37849 ft | 428 kts | 280° |
| 2026-04-24 04:51 | 40.44031 | 51.64494 | 37851 ft | 429 kts | 280° |
| 2026-04-24 04:52 | 40.45428 | 51.56873 | 37853 ft | 429 kts | 280° |
| 2026-04-24 04:52 | 40.46814 | 51.49292 | 37852 ft | 429 kts | 281° |
| 2026-04-24 04:53 | 40.48327 | 51.41711 | 37851 ft | 429 kts | 282° |
| 2026-04-24 04:53 | 40.49893 | 51.34150 | 37852 ft | 429 kts | 282° |
| 2026-04-24 04:54 | 40.51445 | 51.26578 | 37871 ft | 429 kts | 282° |
| 2026-04-24 04:54 | 40.52980 | 51.18999 | 37861 ft | 428 kts | 282° |
| 2026-04-24 04:55 | 40.54494 | 51.11470 | 37842 ft | 428 kts | 282° |
| 2026-04-24 04:55 | 40.56011 | 51.03903 | 37852 ft | 427 kts | 282° |
| 2026-04-24 04:56 | 40.57521 | 50.96342 | 37857 ft | 427 kts | 282° |
| 2026-04-24 04:56 | 40.59015 | 50.88836 | 37860 ft | 426 kts | 281° |
| 2026-04-24 04:57 | 40.60512 | 50.81287 | 37854 ft | 426 kts | 281° |
| 2026-04-24 04:57 | 40.62004 | 50.73734 | 37856 ft | 426 kts | 281° |
| 2026-04-24 04:58 | 40.63489 | 50.66186 | 37856 ft | 425 kts | 281° |
| 2026-04-24 04:58 | 40.64970 | 50.58632 | 37862 ft | 425 kts | 281° |
| 2026-04-24 04:59 | 40.66436 | 50.51129 | 37852 ft | 425 kts | 281° |
| 2026-04-24 04:59 | 40.67905 | 50.43583 | 37849 ft | 426 kts | 281° |
| 2026-04-24 05:00 | 40.69372 | 50.35999 | 37852 ft | 426 kts | 281° |
| 2026-04-24 05:00 | 40.70833 | 50.28412 | 37858 ft | 427 kts | 281° |
| 2026-04-24 05:01 | 40.72292 | 50.20811 | 37852 ft | 428 kts | 281° |
| 2026-04-24 05:01 | 40.73742 | 50.13225 | 37850 ft | 429 kts | 281° |
| 2026-04-24 05:02 | 40.75201 | 50.05563 | 37848 ft | 430 kts | 281° |
| 2026-04-24 05:02 | 40.76655 | 49.97899 | 37850 ft | 431 kts | 281° |
| 2026-04-24 05:03 | 40.78108 | 49.90210 | 37852 ft | 432 kts | 281° |
| 2026-04-24 05:03 | 40.79546 | 49.82568 | 37868 ft | 432 kts | 281° |
| 2026-04-24 05:04 | 40.81001 | 49.74809 | 37861 ft | 433 kts | 281° |
| 2026-04-24 05:04 | 40.82433 | 49.67140 | 37862 ft | 432 kts | 281° |
| 2026-04-24 05:05 | 40.83869 | 49.59421 | 37861 ft | 432 kts | 281° |
| 2026-04-24 05:05 | 40.85298 | 49.51704 | 37876 ft | 432 kts | 280° |
| 2026-04-24 05:06 | 40.86717 | 49.44010 | 37862 ft | 432 kts | 280° |
| 2026-04-24 05:06 | 40.88137 | 49.36286 | 37855 ft | 433 kts | 280° |
| 2026-04-24 05:07 | 40.89512 | 49.28539 | 37851 ft | 432 kts | 279° |
| 2026-04-24 05:07 | 40.90817 | 49.20785 | 37839 ft | 431 kts | 279° |
| 2026-04-24 05:08 | 40.92107 | 49.13090 | 37850 ft | 431 kts | 279° |
| 2026-04-24 05:08 | 40.93406 | 49.05345 | 37833 ft | 431 kts | 279° |
| 2026-04-24 05:09 | 40.94705 | 48.97595 | 37827 ft | 431 kts | 279° |
| 2026-04-24 05:09 | 40.95781 | 48.91156 | 37830 ft | 430 kts | 279° |
| 2026-04-24 05:10 | 40.97278 | 48.82160 | 37819 ft | 431 kts | 278° |
| 2026-04-24 05:10 | 40.98353 | 48.75666 | 37809 ft | 430 kts | 278° |
| 2026-04-24 05:11 | 40.99617 | 48.67995 | 37794 ft | 428 kts | 278° |
| 2026-04-24 05:11 | 41.00879 | 48.60299 | 37746 ft | 427 kts | 279° |
| 2026-04-24 05:12 | 41.02144 | 48.52558 | 37794 ft | 432 kts | 279° |
| 2026-04-24 05:12 | 41.03423 | 48.44698 | 37802 ft | 439 kts | 279° |
| 2026-04-24 05:13 | 41.05337 | 48.32877 | 37793 ft | 434 kts | 279° |
| 2026-04-24 05:14 | 41.06592 | 48.25073 | 37797 ft | 432 kts | 279° |
| 2026-04-24 05:14 | 41.07837 | 48.17286 | 37801 ft | 430 kts | 279° |
| 2026-04-24 05:15 | 41.09073 | 48.09530 | 37799 ft | 429 kts | 279° |
| 2026-04-24 05:15 | 41.10296 | 48.01831 | 37832 ft | 429 kts | 279° |
| 2026-04-24 05:16 | 41.11524 | 47.94057 | 37803 ft | 431 kts | 278° |
| 2026-04-24 05:16 | 41.12756 | 47.86264 | 37813 ft | 431 kts | 278° |
| 2026-04-24 05:17 | 41.13981 | 47.78467 | 37816 ft | 432 kts | 278° |
| 2026-04-24 05:17 | 41.15204 | 47.70646 | 37854 ft | 433 kts | 278° |
| 2026-04-24 05:18 | 41.16424 | 47.62807 | 37851 ft | 434 kts | 278° |
| 2026-04-24 05:18 | 41.17639 | 47.54959 | 37838 ft | 433 kts | 278° |
| 2026-04-24 05:19 | 41.18848 | 47.47127 | 37844 ft | 433 kts | 278° |
| 2026-04-24 05:19 | 41.20042 | 47.39338 | 37829 ft | 433 kts | 278° |
| 2026-04-24 05:20 | 41.21231 | 47.31584 | 37860 ft | 419 kts | 277° |
| 2026-04-24 05:20 | 41.22382 | 47.24047 | 37866 ft | 416 kts | 277° |
| 2026-04-24 05:21 | 41.23520 | 47.16473 | 37883 ft | 419 kts | 277° |
| 2026-04-24 05:21 | 41.24664 | 47.08866 | 37896 ft | 420 kts | 277° |
| 2026-04-24 05:22 | 41.25802 | 47.01276 | 37901 ft | 421 kts | 277° |
| 2026-04-24 05:22 | 41.26943 | 46.93631 | 37905 ft | 422 kts | 276° |
| 2026-04-24 05:23 | 41.28082 | 46.85961 | 37910 ft | 423 kts | 276° |
| 2026-04-24 05:23 | 41.29218 | 46.78280 | 37909 ft | 423 kts | 276° |
| 2026-04-24 05:24 | 41.30337 | 46.70572 | 37914 ft | 424 kts | 276° |
| 2026-04-24 05:24 | 41.31412 | 46.62870 | 37914 ft | 423 kts | 276° |
| 2026-04-24 05:25 | 41.32480 | 46.55150 | 37926 ft | 425 kts | 276° |
| 2026-04-24 05:25 | 41.33552 | 46.47404 | 37926 ft | 427 kts | 276° |
| 2026-04-24 05:26 | 41.34618 | 46.39670 | 37925 ft | 428 kts | 276° |
| 2026-04-24 05:26 | 41.35691 | 46.31859 | 37923 ft | 429 kts | 276° |
| 2026-04-24 05:27 | 41.36759 | 46.24036 | 37917 ft | 429 kts | 276° |
| 2026-04-24 05:27 | 41.37817 | 46.16249 | 37921 ft | 429 kts | 276° |
| 2026-04-24 05:28 | 41.38876 | 46.08408 | 37915 ft | 430 kts | 276° |
| 2026-04-24 05:28 | 41.39930 | 46.00560 | 37923 ft | 430 kts | 276° |
| 2026-04-24 05:29 | 41.40980 | 45.92702 | 37921 ft | 430 kts | 276° |
| 2026-04-24 05:29 | 41.42024 | 45.84855 | 37945 ft | 430 kts | 276° |
| 2026-04-24 05:30 | 41.43054 | 45.77057 | 37925 ft | 430 kts | 276° |
| 2026-04-24 05:30 | 41.44089 | 45.69187 | 37929 ft | 430 kts | 276° |
| 2026-04-24 05:31 | 41.45116 | 45.61331 | 37928 ft | 430 kts | 276° |
| 2026-04-24 05:31 | 41.46140 | 45.53462 | 37935 ft | 430 kts | 276° |
| 2026-04-24 05:32 | 41.47149 | 45.45654 | 37964 ft | 430 kts | 276° |
| 2026-04-24 05:32 | 41.48162 | 45.37785 | 37948 ft | 430 kts | 276° |
| 2026-04-24 05:33 | 41.48906 | 45.29897 | 37945 ft | 428 kts | 273° |
| 2026-04-24 05:33 | 41.49535 | 45.21999 | 37940 ft | 427 kts | 273° |
| 2026-04-24 05:34 | 41.50481 | 45.10167 | 37945 ft | 427 kts | 273° |
| 2026-04-24 05:34 | 41.51112 | 45.02323 | 37975 ft | 427 kts | 273° |
| 2026-04-24 05:35 | 41.51743 | 44.94447 | 37965 ft | 426 kts | 273° |
| 2026-04-24 05:35 | 41.52366 | 44.86597 | 37962 ft | 424 kts | 273° |
| 2026-04-24 05:36 | 41.52980 | 44.78788 | 37979 ft | 423 kts | 273° |
| 2026-04-24 05:36 | 41.53587 | 44.70988 | 37984 ft | 421 kts | 272° |
| 2026-04-24 05:37 | 41.54184 | 44.63256 | 37973 ft | 421 kts | 272° |
| 2026-04-24 05:37 | 41.54779 | 44.55479 | 37979 ft | 421 kts | 272° |
| 2026-04-24 05:38 | 41.55369 | 44.47699 | 37976 ft | 421 kts | 272° |
| 2026-04-24 05:38 | 41.55955 | 44.39912 | 37978 ft | 421 kts | 272° |
| 2026-04-24 05:39 | 41.56536 | 44.32114 | 37983 ft | 422 kts | 272° |
| 2026-04-24 05:39 | 41.57604 | 44.24422 | 38018 ft | 428 kts | 282° |
| 2026-04-24 05:40 | 41.59664 | 44.16913 | 37998 ft | 434 kts | 290° |
| 2026-04-24 05:40 | 41.62518 | 44.09769 | 37990 ft | 436 kts | 293° |
| 2026-04-24 05:41 | 41.65455 | 44.02672 | 38014 ft | 436 kts | 293° |
| 2026-04-24 05:41 | 41.68368 | 43.95551 | 38029 ft | 436 kts | 293° |
| 2026-04-24 05:42 | 41.71257 | 43.88407 | 38030 ft | 436 kts | 292° |
| 2026-04-24 05:42 | 41.74133 | 43.81262 | 38042 ft | 435 kts | 292° |
| 2026-04-24 05:43 | 41.76989 | 43.74146 | 38049 ft | 435 kts | 292° |
| 2026-04-24 05:43 | 41.79853 | 43.66994 | 38053 ft | 436 kts | 292° |
| 2026-04-24 05:44 | 41.82716 | 43.59829 | 38056 ft | 435 kts | 292° |
| 2026-04-24 05:44 | 41.85567 | 43.52679 | 38064 ft | 434 kts | 292° |
| 2026-04-24 05:45 | 41.88390 | 43.45574 | 38079 ft | 433 kts | 292° |
| 2026-04-24 05:45 | 41.91228 | 43.38414 | 38087 ft | 435 kts | 292° |
| 2026-04-24 05:46 | 41.94070 | 43.31232 | 38085 ft | 436 kts | 292° |
| 2026-04-24 05:46 | 41.96915 | 43.24022 | 38091 ft | 436 kts | 292° |
| 2026-04-24 05:47 | 41.99757 | 43.16804 | 38116 ft | 436 kts | 292° |
| 2026-04-24 05:47 | 42.02582 | 43.09612 | 38100 ft | 437 kts | 292° |
| 2026-04-24 05:48 | 42.04919 | 43.02190 | 38104 ft | 423 kts | 275° |
| 2026-04-24 05:48 | 42.04717 | 42.94353 | 38104 ft | 422 kts | 256° |
| 2026-04-24 05:49 | 42.02522 | 42.87005 | 38088 ft | 427 kts | 246° |
| 2026-04-24 05:49 | 42.00050 | 42.79681 | 38090 ft | 432 kts | 247° |
| 2026-04-24 05:50 | 41.97621 | 42.72386 | 38076 ft | 425 kts | 247° |
| 2026-04-24 05:50 | 41.95239 | 42.65154 | 38087 ft | 423 kts | 247° |
| 2026-04-24 05:51 | 41.92859 | 42.57919 | 38094 ft | 423 kts | 247° |
| 2026-04-24 05:51 | 41.90474 | 42.50682 | 38097 ft | 423 kts | 247° |
| 2026-04-24 05:52 | 41.88098 | 42.43495 | 38086 ft | 424 kts | 247° |
| 2026-04-24 05:52 | 41.85705 | 42.36281 | 38104 ft | 423 kts | 247° |
| 2026-04-24 05:53 | 41.83307 | 42.29063 | 38096 ft | 424 kts | 247° |
| 2026-04-24 05:53 | 41.81310 | 42.23068 | 38104 ft | 424 kts | 247° |
| 2026-04-24 05:54 | 41.78508 | 42.14679 | 38086 ft | 423 kts | 247° |
| 2026-04-24 05:54 | 41.76487 | 42.08646 | 38103 ft | 423 kts | 247° |
| 2026-04-24 05:55 | 41.74084 | 42.01492 | 38098 ft | 424 kts | 247° |
| 2026-04-24 05:55 | 41.71665 | 41.94305 | 38089 ft | 423 kts | 247° |
| 2026-04-24 05:56 | 41.69234 | 41.87103 | 38086 ft | 423 kts | 247° |
| 2026-04-24 05:56 | 41.66821 | 41.79974 | 38079 ft | 423 kts | 247° |
| 2026-04-24 05:57 | 41.64390 | 41.72805 | 38075 ft | 423 kts | 247° |
| 2026-04-24 05:57 | 41.61954 | 41.65643 | 38075 ft | 421 kts | 247° |
| 2026-04-24 05:58 | 41.59523 | 41.58509 | 38062 ft | 421 kts | 247° |
| 2026-04-24 05:58 | 41.57102 | 41.51406 | 38093 ft | 419 kts | 248° |
| 2026-04-24 05:59 | 41.55637 | 41.43931 | 38118 ft | 420 kts | 261° |
| 2026-04-24 05:59 | 41.55314 | 41.36136 | 38074 ft | 423 kts | 271° |
| 2026-04-24 06:00 | 41.55794 | 41.28328 | 38076 ft | 421 kts | 272° |
| 2026-04-24 06:00 | 41.56286 | 41.20558 | 38071 ft | 417 kts | 272° |
| 2026-04-24 06:01 | 41.56737 | 41.12856 | 38071 ft | 415 kts | 271° |
| 2026-04-24 06:01 | 41.57166 | 41.05171 | 38070 ft | 413 kts | 271° |
| 2026-04-24 06:02 | 41.57584 | 40.97553 | 38074 ft | 414 kts | 271° |
| 2026-04-24 06:02 | 41.58001 | 40.89862 | 38066 ft | 415 kts | 271° |
| 2026-04-24 06:03 | 41.58415 | 40.82139 | 38064 ft | 417 kts | 271° |
| 2026-04-24 06:03 | 41.58826 | 40.74382 | 38051 ft | 419 kts | 271° |
| 2026-04-24 06:04 | 41.59234 | 40.66609 | 38062 ft | 420 kts | 271° |
| 2026-04-24 06:04 | 41.59633 | 40.58859 | 38069 ft | 421 kts | 271° |
| 2026-04-24 06:05 | 41.60027 | 40.51033 | 38055 ft | 422 kts | 271° |
| 2026-04-24 06:05 | 41.60416 | 40.43192 | 38058 ft | 423 kts | 271° |
| 2026-04-24 06:06 | 41.60801 | 40.35353 | 38048 ft | 423 kts | 271° |
| 2026-04-24 06:06 | 41.61181 | 40.27510 | 38052 ft | 422 kts | 271° |
| 2026-04-24 06:07 | 41.61555 | 40.19679 | 38048 ft | 422 kts | 271° |
| 2026-04-24 06:08 | 41.62318 | 40.03330 | 38049 ft | 421 kts | 271° |
| 2026-04-24 06:08 | 41.62672 | 39.95572 | 38052 ft | 421 kts | 270° |
| 2026-04-24 06:09 | 41.63023 | 39.87760 | 38052 ft | 420 kts | 270° |
| 2026-04-24 06:09 | 41.63369 | 39.79958 | 38052 ft | 420 kts | 270° |
| 2026-04-24 06:10 | 41.63709 | 39.72151 | 38050 ft | 421 kts | 270° |
| 2026-04-24 06:11 | 41.64212 | 39.60409 | 38046 ft | 422 kts | 270° |
| 2026-04-24 06:11 | 41.64540 | 39.52620 | 38038 ft | 422 kts | 270° |
| 2026-04-24 06:12 | 41.64869 | 39.44764 | 38045 ft | 423 kts | 270° |
| 2026-04-24 06:12 | 41.65194 | 39.36883 | 38073 ft | 424 kts | 270° |
| 2026-04-24 06:13 | 41.65514 | 39.28981 | 38050 ft | 426 kts | 270° |
| 2026-04-24 06:13 | 41.65776 | 39.22402 | 38040 ft | 426 kts | 270° |
| 2026-04-24 06:14 | 41.66138 | 39.13177 | 38034 ft | 427 kts | 270° |
| 2026-04-24 06:14 | 41.66392 | 39.06582 | 38040 ft | 427 kts | 270° |
| 2026-04-24 06:15 | 41.66692 | 38.98650 | 38041 ft | 427 kts | 270° |
| 2026-04-24 06:15 | 41.67035 | 38.89402 | 38036 ft | 428 kts | 270° |
| 2026-04-24 06:16 | 41.67278 | 38.82743 | 38032 ft | 428 kts | 270° |
| 2026-04-24 06:16 | 41.67561 | 38.74829 | 38029 ft | 428 kts | 270° |
| 2026-04-24 06:17 | 41.67841 | 38.66873 | 38031 ft | 428 kts | 270° |
| 2026-04-24 06:17 | 41.68115 | 38.58905 | 38030 ft | 428 kts | 270° |
| 2026-04-24 06:18 | 41.68381 | 38.50999 | 38031 ft | 428 kts | 270° |
| 2026-04-24 06:18 | 41.68644 | 38.43031 | 38031 ft | 428 kts | 270° |
| 2026-04-24 06:19 | 41.68902 | 38.35063 | 38020 ft | 428 kts | 270° |
| 2026-04-24 06:19 | 41.69155 | 38.27079 | 38026 ft | 429 kts | 270° |
| 2026-04-24 06:20 | 41.69402 | 38.19105 | 38027 ft | 429 kts | 270° |
| 2026-04-24 06:20 | 41.69641 | 38.11176 | 38029 ft | 430 kts | 270° |
| 2026-04-24 06:21 | 41.69878 | 38.03177 | 38026 ft | 431 kts | 270° |
| 2026-04-24 06:21 | 41.70110 | 37.95149 | 38018 ft | 431 kts | 270° |
| 2026-04-24 06:22 | 41.70336 | 37.87111 | 38017 ft | 432 kts | 270° |
| 2026-04-24 06:22 | 41.70556 | 37.79122 | 38002 ft | 432 kts | 270° |
| 2026-04-24 06:23 | 41.70773 | 37.71075 | 38022 ft | 432 kts | 270° |
| 2026-04-24 06:23 | 41.70982 | 37.63015 | 38017 ft | 433 kts | 270° |
| 2026-04-24 06:24 | 41.71180 | 37.54951 | 38016 ft | 434 kts | 270° |
| 2026-04-24 06:24 | 41.71372 | 37.46919 | 38011 ft | 434 kts | 270° |
| 2026-04-24 06:25 | 41.71560 | 37.38825 | 38008 ft | 435 kts | 270° |
| 2026-04-24 06:25 | 41.71744 | 37.30716 | 38033 ft | 435 kts | 270° |
| 2026-04-24 06:26 | 41.71922 | 37.22615 | 38013 ft | 436 kts | 270° |
| 2026-04-24 06:26 | 41.72093 | 37.14542 | 37995 ft | 436 kts | 270° |
| 2026-04-24 06:27 | 41.72260 | 37.06431 | 38002 ft | 436 kts | 270° |
| 2026-04-24 06:27 | 41.72421 | 36.98306 | 38001 ft | 436 kts | 270° |
| 2026-04-24 06:28 | 41.72576 | 36.90186 | 38015 ft | 436 kts | 270° |
| 2026-04-24 06:28 | 41.72726 | 36.82050 | 38000 ft | 437 kts | 270° |
| 2026-04-24 06:29 | 41.72870 | 36.73950 | 37997 ft | 437 kts | 270° |
| 2026-04-24 06:29 | 41.73008 | 36.65802 | 37997 ft | 437 kts | 270° |
| 2026-04-24 06:30 | 41.73141 | 36.57653 | 37984 ft | 437 kts | 270° |
| 2026-04-24 06:30 | 41.73268 | 36.49550 | 37996 ft | 437 kts | 270° |
| 2026-04-24 06:31 | 41.73389 | 36.41397 | 37989 ft | 438 kts | 270° |
| 2026-04-24 06:31 | 41.73505 | 36.33230 | 37990 ft | 438 kts | 270° |
| 2026-04-24 06:32 | 41.73614 | 36.25115 | 37986 ft | 438 kts | 270° |
| 2026-04-24 06:32 | 41.73718 | 36.16941 | 37990 ft | 439 kts | 270° |
| 2026-04-24 06:33 | 41.73817 | 36.08772 | 37989 ft | 439 kts | 270° |
| 2026-04-24 06:33 | 41.73910 | 36.00600 | 37967 ft | 439 kts | 270° |
| 2026-04-24 06:34 | 41.73996 | 35.92465 | 37979 ft | 439 kts | 270° |
| 2026-04-24 06:34 | 41.74078 | 35.84285 | 37985 ft | 439 kts | 270° |
| 2026-04-24 06:35 | 41.74153 | 35.76102 | 37983 ft | 439 kts | 270° |
| 2026-04-24 06:35 | 41.74223 | 35.67915 | 37984 ft | 439 kts | 270° |
| 2026-04-24 06:36 | 41.74287 | 35.59732 | 37989 ft | 440 kts | 270° |
| 2026-04-24 06:36 | 41.74345 | 35.51595 | 37983 ft | 440 kts | 270° |
| 2026-04-24 06:37 | 41.74397 | 35.43391 | 37987 ft | 440 kts | 270° |
| 2026-04-24 06:37 | 41.74444 | 35.35188 | 37982 ft | 440 kts | 270° |
| 2026-04-24 06:38 | 41.74485 | 35.26991 | 37997 ft | 440 kts | 270° |
| 2026-04-24 06:38 | 41.74519 | 35.18778 | 37994 ft | 441 kts | 270° |
| 2026-04-24 06:39 | 41.74549 | 35.10546 | 37984 ft | 442 kts | 270° |
| 2026-04-24 06:39 | 41.74572 | 35.02378 | 38002 ft | 442 kts | 270° |
| 2026-04-24 06:40 | 41.74590 | 34.94133 | 37993 ft | 442 kts | 269° |
| 2026-04-24 06:40 | 41.74602 | 34.85912 | 37998 ft | 442 kts | 269° |
| 2026-04-24 06:41 | 41.74607 | 34.77673 | 37980 ft | 442 kts | 270° |
| 2026-04-24 06:41 | 41.74609 | 34.69492 | 38000 ft | 442 kts | 270° |
| 2026-04-24 06:42 | 41.74834 | 34.61247 | 37988 ft | 443 kts | 276° |
| 2026-04-24 06:42 | 41.76027 | 34.53137 | 38000 ft | 444 kts | 285° |
| 2026-04-24 06:43 | 41.77881 | 34.45265 | 38000 ft | 446 kts | 286° |
| 2026-04-24 06:43 | 41.79767 | 34.37341 | 37994 ft | 445 kts | 286° |
| 2026-04-24 06:44 | 41.81626 | 34.29409 | 38006 ft | 445 kts | 286° |
| 2026-04-24 06:44 | 41.83455 | 34.21527 | 38000 ft | 445 kts | 285° |
| 2026-04-24 06:45 | 41.85289 | 34.13580 | 37997 ft | 446 kts | 285° |
| 2026-04-24 06:45 | 41.87116 | 34.05634 | 37997 ft | 446 kts | 285° |
| 2026-04-24 06:46 | 41.88939 | 33.97685 | 37992 ft | 445 kts | 285° |
| 2026-04-24 06:46 | 41.90758 | 33.89724 | 37998 ft | 446 kts | 285° |
| 2026-04-24 06:47 | 41.92560 | 33.81809 | 37997 ft | 446 kts | 285° |
| 2026-04-24 06:47 | 41.94374 | 33.73816 | 37986 ft | 447 kts | 285° |
| 2026-04-24 06:48 | 41.96115 | 33.65779 | 37995 ft | 448 kts | 283° |
| 2026-04-24 06:48 | 41.97644 | 33.57701 | 37998 ft | 449 kts | 283° |
| 2026-04-24 06:49 | 41.99174 | 33.49550 | 37998 ft | 450 kts | 283° |
| 2026-04-24 06:49 | 42.00730 | 33.41376 | 37981 ft | 451 kts | 283° |
| 2026-04-24 06:50 | 42.02293 | 33.33196 | 37995 ft | 452 kts | 283° |
| 2026-04-24 06:50 | 42.03852 | 33.25000 | 37991 ft | 452 kts | 283° |
| 2026-04-24 06:51 | 42.05409 | 33.16775 | 37987 ft | 453 kts | 283° |
| 2026-04-24 06:51 | 42.06952 | 33.08597 | 37991 ft | 453 kts | 283° |
| 2026-04-24 06:52 | 42.08587 | 33.00383 | 37992 ft | 454 kts | 284° |
| 2026-04-24 06:52 | 42.10294 | 32.92190 | 37992 ft | 455 kts | 284° |
| 2026-04-24 06:53 | 42.11980 | 32.84001 | 37992 ft | 455 kts | 284° |
| 2026-04-24 06:53 | 42.13652 | 32.75780 | 37989 ft | 455 kts | 285° |
| 2026-04-24 06:54 | 42.15321 | 32.67543 | 37989 ft | 455 kts | 285° |
| 2026-04-24 06:54 | 42.16975 | 32.59347 | 37989 ft | 455 kts | 285° |
| 2026-04-24 06:55 | 42.18629 | 32.51091 | 37989 ft | 455 kts | 285° |
| 2026-04-24 06:55 | 42.20275 | 32.42842 | 37988 ft | 455 kts | 285° |
| 2026-04-24 06:56 | 42.21915 | 32.34591 | 37993 ft | 455 kts | 285° |
| 2026-04-24 06:56 | 42.23540 | 32.26384 | 37992 ft | 455 kts | 284° |
| 2026-04-24 06:57 | 42.25167 | 32.18140 | 37997 ft | 454 kts | 285° |
| 2026-04-24 06:57 | 42.26785 | 32.09939 | 37991 ft | 454 kts | 285° |
| 2026-04-24 06:58 | 42.28396 | 32.01696 | 37989 ft | 453 kts | 285° |
| 2026-04-24 06:58 | 42.29995 | 31.93463 | 37982 ft | 452 kts | 285° |
| 2026-04-24 06:59 | 42.31578 | 31.85283 | 37983 ft | 452 kts | 285° |
| 2026-04-24 06:59 | 42.33164 | 31.77059 | 37979 ft | 451 kts | 285° |
| 2026-04-24 07:00 | 42.34739 | 31.68859 | 37967 ft | 450 kts | 285° |
| 2026-04-24 07:00 | 42.36300 | 31.60700 | 37987 ft | 450 kts | 285° |
| 2026-04-24 07:01 | 42.37864 | 31.52486 | 37983 ft | 451 kts | 285° |
| 2026-04-24 07:01 | 42.39424 | 31.44258 | 37982 ft | 451 kts | 285° |
| 2026-04-24 07:02 | 42.40981 | 31.36016 | 37976 ft | 452 kts | 285° |
| 2026-04-24 07:02 | 42.42531 | 31.27770 | 37979 ft | 452 kts | 285° |
| 2026-04-24 07:03 | 42.44070 | 31.19550 | 37980 ft | 453 kts | 285° |
| 2026-04-24 07:03 | 42.45362 | 31.12626 | 37978 ft | 453 kts | 285° |
| 2026-04-24 07:04 | 42.47150 | 31.03014 | 37981 ft | 452 kts | 285° |
| 2026-04-24 07:04 | 42.48425 | 30.96143 | 37977 ft | 452 kts | 285° |
| 2026-04-24 07:05 | 42.49952 | 30.87880 | 37971 ft | 452 kts | 285° |
| 2026-04-24 07:05 | 42.51475 | 30.79600 | 37972 ft | 452 kts | 285° |
| 2026-04-24 07:06 | 42.52989 | 30.71330 | 37971 ft | 451 kts | 285° |
| 2026-04-24 07:06 | 42.54497 | 30.63059 | 37970 ft | 451 kts | 285° |
| 2026-04-24 07:07 | 42.55987 | 30.54850 | 37972 ft | 451 kts | 285° |
| 2026-04-24 07:07 | 42.58231 | 30.42420 | 37968 ft | 452 kts | 284° |
| 2026-04-24 07:08 | 42.59723 | 30.34113 | 37971 ft | 452 kts | 285° |
| 2026-04-24 07:08 | 42.61879 | 30.26186 | 37975 ft | 451 kts | 297° |
| 2026-04-24 07:09 | 42.65198 | 30.18951 | 37967 ft | 452 kts | 307° |
| 2026-04-24 07:09 | 42.69064 | 30.12191 | 37966 ft | 453 kts | 308° |
| 2026-04-24 07:10 | 42.72936 | 30.05464 | 37972 ft | 454 kts | 307° |
| 2026-04-24 07:10 | 42.76806 | 29.98660 | 37970 ft | 455 kts | 307° |
| 2026-04-24 07:11 | 42.80674 | 29.91802 | 37965 ft | 456 kts | 307° |
| 2026-04-24 07:11 | 42.84538 | 29.84924 | 37971 ft | 456 kts | 307° |
| 2026-04-24 07:12 | 42.88369 | 29.78088 | 37972 ft | 457 kts | 307° |
| 2026-04-24 07:12 | 42.92229 | 29.71185 | 37969 ft | 457 kts | 307° |
| 2026-04-24 07:13 | 42.96088 | 29.64270 | 37982 ft | 457 kts | 307° |
| 2026-04-24 07:13 | 42.99938 | 29.57355 | 37970 ft | 458 kts | 307° |
| 2026-04-24 07:14 | 43.03793 | 29.50415 | 37973 ft | 458 kts | 307° |
| 2026-04-24 07:14 | 43.07637 | 29.43477 | 37972 ft | 457 kts | 307° |
| 2026-04-24 07:15 | 43.11454 | 29.36573 | 37975 ft | 457 kts | 307° |
| 2026-04-24 07:15 | 43.15289 | 29.29620 | 37973 ft | 457 kts | 307° |
| 2026-04-24 07:16 | 43.19114 | 29.22667 | 37972 ft | 457 kts | 307° |
| 2026-04-24 07:16 | 43.22936 | 29.15705 | 37975 ft | 456 kts | 308° |
| 2026-04-24 07:17 | 43.26747 | 29.08747 | 37975 ft | 456 kts | 308° |
| 2026-04-24 07:17 | 43.30553 | 29.01782 | 37972 ft | 456 kts | 308° |
| 2026-04-24 07:18 | 43.34336 | 28.94840 | 37968 ft | 456 kts | 308° |
| 2026-04-24 07:18 | 43.38136 | 28.87852 | 37989 ft | 456 kts | 308° |
| 2026-04-24 07:19 | 43.41937 | 28.80845 | 37963 ft | 456 kts | 308° |
| 2026-04-24 07:19 | 43.45707 | 28.73880 | 37961 ft | 455 kts | 308° |
| 2026-04-24 07:20 | 43.49486 | 28.66880 | 37950 ft | 455 kts | 308° |
| 2026-04-24 07:20 | 43.53265 | 28.59865 | 37950 ft | 455 kts | 308° |
| 2026-04-24 07:21 | 43.57036 | 28.52848 | 37947 ft | 455 kts | 308° |
| 2026-04-24 07:21 | 43.60778 | 28.45867 | 37946 ft | 455 kts | 308° |
| 2026-04-24 07:22 | 43.64539 | 28.38835 | 37941 ft | 455 kts | 308° |
| 2026-04-24 07:22 | 43.68298 | 28.31788 | 37941 ft | 455 kts | 308° |
| 2026-04-24 07:23 | 43.72054 | 28.24731 | 37949 ft | 455 kts | 308° |
| 2026-04-24 07:23 | 43.75786 | 28.17704 | 37953 ft | 455 kts | 308° |
| 2026-04-24 07:24 | 43.79533 | 28.10627 | 37974 ft | 454 kts | 308° |
| 2026-04-24 07:24 | 43.83272 | 28.03553 | 37960 ft | 454 kts | 308° |
| 2026-04-24 07:25 | 43.86989 | 27.96500 | 37951 ft | 453 kts | 308° |
| 2026-04-24 07:25 | 43.90697 | 27.89448 | 37943 ft | 451 kts | 308° |
| 2026-04-24 07:26 | 43.94367 | 27.82453 | 37955 ft | 450 kts | 308° |
| 2026-04-24 07:26 | 43.98048 | 27.75419 | 37952 ft | 450 kts | 308° |
| 2026-04-24 07:27 | 44.01729 | 27.68369 | 37951 ft | 450 kts | 308° |
| 2026-04-24 07:27 | 44.05411 | 27.61300 | 37940 ft | 451 kts | 308° |
| 2026-04-24 07:28 | 44.09086 | 27.54226 | 37952 ft | 452 kts | 308° |
| 2026-04-24 07:28 | 44.12745 | 27.47166 | 37957 ft | 453 kts | 308° |
| 2026-04-24 07:29 | 44.16428 | 27.40042 | 37946 ft | 454 kts | 308° |
| 2026-04-24 07:29 | 44.20117 | 27.32890 | 37948 ft | 454 kts | 308° |
| 2026-04-24 07:30 | 44.23807 | 27.25717 | 37956 ft | 456 kts | 308° |
| 2026-04-24 07:30 | 44.27507 | 27.18508 | 37946 ft | 458 kts | 308° |
| 2026-04-24 07:31 | 44.31221 | 27.11253 | 37940 ft | 459 kts | 308° |
| 2026-04-24 07:31 | 44.34905 | 27.04038 | 37944 ft | 460 kts | 308° |
| 2026-04-24 07:32 | 44.38622 | 26.96741 | 37948 ft | 461 kts | 308° |
| 2026-04-24 07:32 | 44.42338 | 26.89426 | 37947 ft | 462 kts | 308° |
| 2026-04-24 07:33 | 44.46061 | 26.82081 | 37948 ft | 462 kts | 308° |
| 2026-04-24 07:33 | 44.49775 | 26.74733 | 37936 ft | 463 kts | 308° |
| 2026-04-24 07:34 | 44.53491 | 26.67363 | 37941 ft | 462 kts | 308° |
| 2026-04-24 07:34 | 44.57197 | 26.59996 | 37935 ft | 462 kts | 308° |
| 2026-04-24 07:35 | 44.60838 | 26.52633 | 37926 ft | 462 kts | 306° |
| 2026-04-24 07:35 | 44.64307 | 26.45027 | 37949 ft | 462 kts | 305° |
| 2026-04-24 07:36 | 44.67735 | 26.37373 | 37940 ft | 462 kts | 306° |
| 2026-04-24 07:36 | 44.71175 | 26.29740 | 37937 ft | 462 kts | 306° |
| 2026-04-24 07:37 | 44.74624 | 26.22120 | 37939 ft | 461 kts | 306° |
| 2026-04-24 07:37 | 44.78042 | 26.14561 | 37949 ft | 461 kts | 306° |
| 2026-04-24 07:38 | 44.81483 | 26.06933 | 37948 ft | 461 kts | 306° |
| 2026-04-24 07:38 | 44.84916 | 25.99299 | 37939 ft | 461 kts | 306° |
| 2026-04-24 07:39 | 44.88352 | 25.91635 | 37922 ft | 462 kts | 306° |
| 2026-04-24 07:39 | 44.91765 | 25.84004 | 37923 ft | 463 kts | 306° |
| 2026-04-24 07:40 | 44.95199 | 25.76305 | 37923 ft | 464 kts | 306° |
| 2026-04-24 07:40 | 44.98639 | 25.68572 | 37941 ft | 465 kts | 306° |
| 2026-04-24 07:41 | 45.02076 | 25.60822 | 37931 ft | 465 kts | 306° |
| 2026-04-24 07:41 | 45.05517 | 25.53044 | 37935 ft | 466 kts | 306° |
| 2026-04-24 07:42 | 45.08950 | 25.45262 | 37936 ft | 466 kts | 306° |
| 2026-04-24 07:42 | 45.12350 | 25.37530 | 37931 ft | 465 kts | 307° |
| 2026-04-24 07:43 | 45.15717 | 25.29843 | 37927 ft | 452 kts | 308° |
| 2026-04-24 07:43 | 45.19017 | 25.22307 | 37937 ft | 453 kts | 308° |
| 2026-04-24 07:44 | 45.22343 | 25.14697 | 37937 ft | 454 kts | 307° |
| 2026-04-24 07:44 | 45.25662 | 25.07073 | 37913 ft | 454 kts | 307° |
| 2026-04-24 07:45 | 45.28964 | 24.99465 | 37950 ft | 455 kts | 308° |
| 2026-04-24 07:45 | 45.32301 | 24.91757 | 37952 ft | 456 kts | 308° |
| 2026-04-24 07:46 | 45.35597 | 24.84122 | 37964 ft | 456 kts | 307° |
| 2026-04-24 07:46 | 45.38913 | 24.76422 | 37934 ft | 457 kts | 307° |
| 2026-04-24 07:47 | 45.42178 | 24.68814 | 37952 ft | 456 kts | 308° |
| 2026-04-24 07:47 | 45.45530 | 24.60986 | 37959 ft | 456 kts | 307° |
| 2026-04-24 07:48 | 45.48831 | 24.53256 | 37961 ft | 456 kts | 307° |
| 2026-04-24 07:48 | 45.52102 | 24.45573 | 37926 ft | 456 kts | 307° |
| 2026-04-24 07:49 | 45.55395 | 24.37816 | 37976 ft | 456 kts | 307° |
| 2026-04-24 07:49 | 45.58663 | 24.30106 | 37973 ft | 457 kts | 307° |
| 2026-04-24 07:50 | 45.61943 | 24.22335 | 37979 ft | 454 kts | 307° |
| 2026-04-24 07:50 | 45.64580 | 24.15885 | 37971 ft | 452 kts | 304° |
| 2026-04-24 07:51 | 45.67531 | 24.07944 | 37986 ft | 452 kts | 303° |
| 2026-04-24 07:51 | 45.70444 | 23.99942 | 38008 ft | 454 kts | 303° |
| 2026-04-24 07:52 | 45.73371 | 23.91919 | 38001 ft | 455 kts | 303° |
| 2026-04-24 07:52 | 45.76318 | 23.83860 | 38001 ft | 457 kts | 303° |
| 2026-04-24 07:53 | 45.79254 | 23.75823 | 37988 ft | 459 kts | 303° |
| 2026-04-24 07:53 | 45.82209 | 23.67711 | 38006 ft | 459 kts | 303° |
| 2026-04-24 07:54 | 45.85161 | 23.59577 | 37986 ft | 459 kts | 303° |
| 2026-04-24 07:54 | 45.88109 | 23.51438 | 37993 ft | 459 kts | 303° |
| 2026-04-24 07:55 | 45.91041 | 23.43309 | 37989 ft | 458 kts | 303° |
| 2026-04-24 07:55 | 45.93949 | 23.35225 | 37992 ft | 458 kts | 303° |
| 2026-04-24 07:56 | 45.96871 | 23.27080 | 37986 ft | 457 kts | 303° |
| 2026-04-24 07:56 | 45.99774 | 23.18964 | 37991 ft | 456 kts | 303° |
| 2026-04-24 07:57 | 46.02674 | 23.10829 | 37987 ft | 456 kts | 303° |
| 2026-04-24 07:57 | 46.05568 | 23.02692 | 38000 ft | 457 kts | 303° |
| 2026-04-24 07:58 | 46.08450 | 22.94564 | 38009 ft | 458 kts | 303° |
| 2026-04-24 07:58 | 46.11342 | 22.86371 | 38003 ft | 459 kts | 303° |
| 2026-04-24 07:59 | 46.14237 | 22.78154 | 37983 ft | 459 kts | 303° |
| 2026-04-24 07:59 | 46.17102 | 22.69994 | 38005 ft | 458 kts | 303° |
| 2026-04-24 08:00 | 46.19980 | 22.61774 | 37992 ft | 458 kts | 303° |
| 2026-04-24 08:00 | 46.22846 | 22.53560 | 38017 ft | 457 kts | 303° |
| 2026-04-24 08:01 | 46.25702 | 22.45351 | 38006 ft | 457 kts | 303° |
| 2026-04-24 08:01 | 46.28555 | 22.37125 | 38005 ft | 457 kts | 303° |
| 2026-04-24 08:02 | 46.31383 | 22.28947 | 38011 ft | 457 kts | 303° |
| 2026-04-24 08:02 | 46.34223 | 22.20706 | 38017 ft | 456 kts | 303° |
| 2026-04-24 08:03 | 46.37052 | 22.12472 | 38012 ft | 456 kts | 303° |
| 2026-04-24 08:03 | 46.39853 | 22.04296 | 38023 ft | 456 kts | 303° |
| 2026-04-24 08:04 | 46.42672 | 21.96043 | 38025 ft | 457 kts | 303° |
| 2026-04-24 08:04 | 46.45492 | 21.87759 | 38027 ft | 458 kts | 302° |
| 2026-04-24 08:05 | 46.48305 | 21.79469 | 38019 ft | 458 kts | 302° |
| 2026-04-24 08:05 | 46.51122 | 21.71141 | 38032 ft | 459 kts | 302° |
| 2026-04-24 08:06 | 46.53917 | 21.62851 | 38036 ft | 460 kts | 302° |
| 2026-04-24 08:06 | 46.56726 | 21.54494 | 38036 ft | 460 kts | 302° |
| 2026-04-24 08:07 | 46.59536 | 21.46106 | 38024 ft | 461 kts | 302° |
| 2026-04-24 08:07 | 46.62321 | 21.37764 | 38045 ft | 461 kts | 302° |
| 2026-04-24 08:08 | 46.65119 | 21.29359 | 38037 ft | 461 kts | 302° |
| 2026-04-24 08:09 | 46.69297 | 21.16756 | 38037 ft | 460 kts | 302° |
| 2026-04-24 08:09 | 46.72072 | 21.08349 | 38053 ft | 460 kts | 302° |
| 2026-04-24 08:10 | 46.74837 | 20.99949 | 38045 ft | 460 kts | 302° |
| 2026-04-24 08:10 | 46.77583 | 20.91579 | 38045 ft | 460 kts | 302° |
| 2026-04-24 08:11 | 46.80338 | 20.83155 | 38045 ft | 460 kts | 302° |
| 2026-04-24 08:11 | 46.83093 | 20.74701 | 38032 ft | 460 kts | 301° |
| 2026-04-24 08:12 | 46.85820 | 20.66305 | 38033 ft | 460 kts | 301° |
| 2026-04-24 08:12 | 46.88556 | 20.57856 | 38035 ft | 460 kts | 301° |
| 2026-04-24 08:13 | 46.91290 | 20.49384 | 38037 ft | 461 kts | 301° |
| 2026-04-24 08:13 | 46.94025 | 20.40883 | 38034 ft | 461 kts | 301° |
| 2026-04-24 08:14 | 46.96754 | 20.32369 | 38029 ft | 462 kts | 301° |
| 2026-04-24 08:14 | 46.99481 | 20.23835 | 38045 ft | 462 kts | 301° |
| 2026-04-24 08:15 | 47.02197 | 20.15305 | 38041 ft | 462 kts | 301° |
| 2026-04-24 08:15 | 47.04907 | 20.06767 | 38030 ft | 462 kts | 301° |
| 2026-04-24 08:16 | 47.07611 | 19.98216 | 38052 ft | 461 kts | 301° |
| 2026-04-24 08:16 | 47.10290 | 19.89718 | 38063 ft | 462 kts | 301° |
| 2026-04-24 08:17 | 47.12984 | 19.81144 | 38042 ft | 462 kts | 301° |
| 2026-04-24 08:17 | 47.15658 | 19.72604 | 38012 ft | 462 kts | 301° |
| 2026-04-24 08:18 | 47.18338 | 19.64016 | 38038 ft | 461 kts | 301° |
| 2026-04-24 08:18 | 47.19657 | 19.59769 | 37911 ft | 452 kts | 301° |
| 2026-04-24 08:18 | 47.20953 | 19.55587 | 37531 ft | 445 kts | 301° |
| 2026-04-24 08:18 | 47.22227 | 19.51475 | 37111 ft | 440 kts | 301° |
| 2026-04-24 08:19 | 47.23498 | 19.47374 | 36674 ft | 439 kts | 301° |
| 2026-04-24 08:19 | 47.24764 | 19.43285 | 36242 ft | 439 kts | 301° |
| 2026-04-24 08:19 | 47.26014 | 19.39245 | 35833 ft | 438 kts | 301° |
| 2026-04-24 08:19 | 47.27276 | 19.35155 | 35363 ft | 438 kts | 301° |
| 2026-04-24 08:20 | 47.28531 | 19.31080 | 34928 ft | 437 kts | 301° |
| 2026-04-24 08:20 | 47.29787 | 19.26995 | 34479 ft | 436 kts | 301° |
| 2026-04-24 08:20 | 47.31032 | 19.22930 | 34036 ft | 433 kts | 301° |
| 2026-04-24 08:20 | 47.32269 | 19.18891 | 33526 ft | 429 kts | 300° |
| 2026-04-24 08:21 | 47.33473 | 19.14952 | 33059 ft | 425 kts | 300° |
| 2026-04-24 08:21 | 47.34682 | 19.11010 | 32536 ft | 422 kts | 300° |
| 2026-04-24 08:21 | 47.35917 | 19.07060 | 31981 ft | 420 kts | 301° |
| 2026-04-24 08:21 | 47.37144 | 19.03171 | 31462 ft | 417 kts | 300° |
| 2026-04-24 08:22 | 47.38369 | 18.99292 | 30955 ft | 414 kts | 300° |
| 2026-04-24 08:22 | 47.39578 | 18.95453 | 30476 ft | 411 kts | 300° |
| 2026-04-24 08:22 | 47.40779 | 18.91627 | 29998 ft | 409 kts | 300° |
| 2026-04-24 08:22 | 47.41965 | 18.87836 | 29463 ft | 405 kts | 300° |
| 2026-04-24 08:23 | 47.43142 | 18.84063 | 28977 ft | 402 kts | 299° |
| 2026-04-24 08:23 | 47.44304 | 18.80333 | 28527 ft | 398 kts | 299° |
| 2026-04-24 08:23 | 47.45443 | 18.76671 | 28080 ft | 395 kts | 300° |
| 2026-04-24 08:23 | 47.46588 | 18.72987 | 27586 ft | 392 kts | 299° |
| 2026-04-24 08:24 | 47.47720 | 18.69338 | 27217 ft | 388 kts | 299° |
| 2026-04-24 08:24 | 47.48840 | 18.65722 | 26845 ft | 385 kts | 299° |
| 2026-04-24 08:24 | 47.49949 | 18.62138 | 26475 ft | 382 kts | 299° |
| 2026-04-24 08:24 | 47.51056 | 18.58560 | 26127 ft | 382 kts | 299° |
| 2026-04-24 08:25 | 47.52159 | 18.54987 | 25801 ft | 382 kts | 299° |
| 2026-04-24 08:25 | 47.53244 | 18.51462 | 25457 ft | 381 kts | 299° |
| 2026-04-24 08:25 | 47.54283 | 18.47848 | 25131 ft | 382 kts | 294° |
| 2026-04-24 08:25 | 47.55110 | 18.44097 | 24800 ft | 382 kts | 292° |
| 2026-04-24 08:26 | 47.55896 | 18.40357 | 24431 ft | 380 kts | 292° |
| 2026-04-24 08:26 | 47.56674 | 18.36625 | 24034 ft | 378 kts | 292° |
| 2026-04-24 08:26 | 47.57450 | 18.32914 | 23639 ft | 376 kts | 292° |
| 2026-04-24 08:26 | 47.58226 | 18.29218 | 23176 ft | 374 kts | 292° |
| 2026-04-24 08:27 | 47.59001 | 18.25533 | 22742 ft | 371 kts | 292° |
| 2026-04-24 08:27 | 47.59767 | 18.21898 | 22346 ft | 368 kts | 292° |
| 2026-04-24 08:27 | 47.60518 | 18.18338 | 21973 ft | 365 kts | 292° |
| 2026-04-24 08:27 | 47.61273 | 18.14750 | 21574 ft | 362 kts | 292° |
| 2026-04-24 08:28 | 47.62018 | 18.11209 | 21198 ft | 359 kts | 292° |
| 2026-04-24 08:28 | 47.62760 | 18.07681 | 20820 ft | 356 kts | 292° |
| 2026-04-24 08:28 | 47.63495 | 18.04177 | 20439 ft | 354 kts | 292° |
| 2026-04-24 08:28 | 47.64223 | 18.00705 | 20069 ft | 352 kts | 292° |
| 2026-04-24 08:29 | 47.64946 | 17.97244 | 19685 ft | 350 kts | 292° |
| 2026-04-24 08:29 | 47.65666 | 17.93799 | 19306 ft | 348 kts | 291° |
| 2026-04-24 08:29 | 47.66370 | 17.90419 | 18930 ft | 346 kts | 291° |
| 2026-04-24 08:29 | 47.67081 | 17.87004 | 18538 ft | 345 kts | 291° |
| 2026-04-24 08:30 | 47.67785 | 17.83612 | 18124 ft | 343 kts | 291° |
| 2026-04-24 08:30 | 47.68487 | 17.80227 | 17703 ft | 342 kts | 291° |
| 2026-04-24 08:30 | 47.69182 | 17.76869 | 17305 ft | 340 kts | 291° |
| 2026-04-24 08:30 | 47.69874 | 17.73520 | 16901 ft | 338 kts | 291° |
| 2026-04-24 08:31 | 47.70557 | 17.70207 | 16520 ft | 335 kts | 291° |
| 2026-04-24 08:31 | 47.71239 | 17.66894 | 16130 ft | 333 kts | 291° |
| 2026-04-24 08:31 | 47.71912 | 17.63616 | 15746 ft | 331 kts | 291° |
| 2026-04-24 08:31 | 47.72583 | 17.60354 | 15356 ft | 329 kts | 291° |
| 2026-04-24 08:32 | 47.73241 | 17.57146 | 14967 ft | 327 kts | 291° |
| 2026-04-24 08:32 | 47.73901 | 17.53918 | 14586 ft | 326 kts | 291° |
| 2026-04-24 08:32 | 47.74470 | 17.50690 | 14187 ft | 324 kts | 283° |
| 2026-04-24 08:32 | 47.74569 | 17.47330 | 13789 ft | 328 kts | 270° |
| 2026-04-24 08:33 | 47.74325 | 17.43962 | 13404 ft | 325 kts | 267° |
| 2026-04-24 08:33 | 47.74072 | 17.40647 | 13063 ft | 320 kts | 267° |
| 2026-04-24 08:33 | 47.73827 | 17.37384 | 12757 ft | 315 kts | 268° |
| 2026-04-24 08:33 | 47.73589 | 17.34165 | 12453 ft | 310 kts | 268° |
| 2026-04-24 08:34 | 47.73358 | 17.30998 | 12160 ft | 307 kts | 268° |
| 2026-04-24 08:34 | 47.73130 | 17.27849 | 11868 ft | 306 kts | 268° |
| 2026-04-24 08:34 | 47.72907 | 17.24750 | 11582 ft | 305 kts | 268° |
| 2026-04-24 08:34 | 47.72681 | 17.21621 | 11292 ft | 304 kts | 268° |
| 2026-04-24 08:35 | 47.72456 | 17.18502 | 10994 ft | 303 kts | 268° |
| 2026-04-24 08:35 | 47.72230 | 17.15383 | 10708 ft | 302 kts | 268° |
| 2026-04-24 08:35 | 47.72005 | 17.12303 | 10434 ft | 298 kts | 268° |
| 2026-04-24 08:35 | 47.71782 | 17.09258 | 10136 ft | 295 kts | 268° |
| 2026-04-24 08:36 | 47.71560 | 17.06262 | 9938 ft | 288 kts | 268° |
| 2026-04-24 08:36 | 47.71322 | 17.03343 | 9771 ft | 281 kts | 266° |
| 2026-04-24 08:36 | 47.71059 | 17.00519 | 9627 ft | 272 kts | 266° |
| 2026-04-24 08:36 | 47.70800 | 16.97760 | 9380 ft | 268 kts | 267° |
| 2026-04-24 08:37 | 47.70547 | 16.95063 | 9082 ft | 266 kts | 267° |
| 2026-04-24 08:37 | 47.70294 | 16.92353 | 8782 ft | 264 kts | 267° |
| 2026-04-24 08:37 | 47.70043 | 16.89663 | 8508 ft | 261 kts | 267° |
| 2026-04-24 08:37 | 47.69795 | 16.87012 | 8234 ft | 258 kts | 267° |
| 2026-04-24 08:38 | 47.69548 | 16.84380 | 7960 ft | 256 kts | 267° |
| 2026-04-24 08:38 | 47.69304 | 16.81778 | 7697 ft | 253 kts | 267° |
| 2026-04-24 08:38 | 47.69156 | 16.79216 | 7334 ft | 243 kts | 281° |
| 2026-04-24 08:38 | 47.69752 | 16.76951 | 7054 ft | 233 kts | 309° |
| 2026-04-24 08:39 | 47.70888 | 16.75265 | 6813 ft | 231 kts | 322° |
| 2026-04-24 08:39 | 47.72309 | 16.74187 | 6571 ft | 231 kts | 339° |
| 2026-04-24 08:39 | 47.73848 | 16.73545 | 6364 ft | 234 kts | 342° |
| 2026-04-24 08:39 | 47.75429 | 16.72929 | 6123 ft | 236 kts | 342° |
| 2026-04-24 08:40 | 47.77020 | 16.72305 | 5885 ft | 237 kts | 342° |
| 2026-04-24 08:40 | 47.78602 | 16.71681 | 5646 ft | 233 kts | 341° |
| 2026-04-24 08:40 | 47.79656 | 16.71258 | 5475 ft | 231 kts | 341° |
| 2026-04-24 08:40 | 47.81173 | 16.70640 | 5274 ft | 227 kts | 341° |
| 2026-04-24 08:41 | 47.83186 | 16.69813 | 4972 ft | 221 kts | 341° |
| 2026-04-24 08:41 | 47.84160 | 16.69412 | 4849 ft | 219 kts | 340° |
| 2026-04-24 08:41 | 47.85620 | 16.68811 | 4640 ft | 216 kts | 341° |
| 2026-04-24 08:41 | 47.87061 | 16.68228 | 4405 ft | 213 kts | 342° |
| 2026-04-24 08:42 | 47.88482 | 16.67651 | 4209 ft | 210 kts | 342° |
| 2026-04-24 08:42 | 47.89873 | 16.67087 | 4008 ft | 205 kts | 343° |
| 2026-04-24 08:42 | 47.91237 | 16.66533 | 3833 ft | 201 kts | 343° |
| 2026-04-24 08:42 | 47.92584 | 16.65986 | 3614 ft | 200 kts | 342° |
| 2026-04-24 08:43 | 47.93905 | 16.65437 | 3435 ft | 197 kts | 342° |
| 2026-04-24 08:43 | 47.95204 | 16.64894 | 3267 ft | 190 kts | 343° |
| 2026-04-24 08:43 | 47.96458 | 16.64367 | 3084 ft | 181 kts | 343° |
| 2026-04-24 08:43 | 47.97615 | 16.63877 | 2865 ft | 164 kts | 343° |
| 2026-04-24 08:44 | 47.98674 | 16.63431 | 2635 ft | 152 kts | 343° |
| 2026-04-24 08:44 | 47.99671 | 16.63013 | 2433 ft | 146 kts | 343° |
| 2026-04-24 08:44 | 48.00633 | 16.62613 | 2234 ft | 144 kts | 342° |
| 2026-04-24 08:44 | 48.01598 | 16.62205 | 2066 ft | 142 kts | 342° |
| 2026-04-24 08:45 | 48.02508 | 16.61819 | 1897 ft | 132 kts | 342° |
| 2026-04-24 08:45 | 48.03383 | 16.61448 | 1724 ft | 131 kts | 343° |
| 2026-04-24 08:45 | 48.04273 | 16.61070 | 1533 ft | 135 kts | 343° |
| 2026-04-24 08:45 | 48.05164 | 16.60698 | 1368 ft | 132 kts | 343° |
| 2026-04-24 08:46 | 48.06050 | 16.60326 | 1198 ft | 133 kts | 342° |
| 2026-04-24 08:46 | 48.06945 | 16.59957 | 1014 ft | 133 kts | 342° |
| 2026-04-24 08:46 | 48.07836 | 16.59572 | 835 ft | 134 kts | 341° |
| 2026-04-24 08:46 | 48.08745 | 16.59186 | 667 ft | 136 kts | 341° |
| 2026-04-24 08:47 | 48.09588 | 16.58822 | 627 ft | 114 kts | 343° |
| 2026-04-24 08:47 | 48.10203 | 16.58561 | 625 ft | 69 kts | 343° |
| 2026-04-24 08:47 | 48.10614 | 16.58393 | 621 ft | 55 kts | 345° |
| 2026-04-24 08:47 | 48.10902 | 16.58266 | 621 ft | 28 kts | 340° |
| 2026-04-24 08:48 | 48.11029 | 16.58108 | 625 ft | 24 kts | 302° |
| 2026-04-24 08:48 | 48.11089 | 16.57924 | 624 ft | 17 kts | 295° |
| 2026-04-24 08:48 | 48.11141 | 16.57766 | 623 ft | 17 kts | 296° |
| 2026-04-24 08:48 | 48.11184 | 16.57632 | 625 ft | 14 kts | 296° |
| 2026-04-24 08:49 | 48.11225 | 16.57504 | 621 ft | 14 kts | 295° |
| 2026-04-24 08:49 | 48.11259 | 16.57397 | 629 ft | 9 kts | 295° |
| 2026-04-24 08:49 | 48.11299 | 16.57335 | 629 ft | 7 kts | 342° |
| 2026-04-24 08:49 | 48.11337 | 16.57347 | 622 ft | 6 kts | 25° |
| 2026-04-24 08:50 | 48.11372 | 16.57374 | 622 ft | 6 kts | 27° |
| 2026-04-24 08:50 | 48.11410 | 16.57384 | 621 ft | 6 kts | 352° |
| 2026-04-24 08:50 | 48.11438 | 16.57347 | 622 ft | 6 kts | 299° |
| 2026-04-24 08:50 | 48.11457 | 16.57295 | 627 ft | 6 kts | 297° |
| 2026-04-24 08:51 | 48.11471 | 16.57250 | 626 ft | 4 kts | 295° |
| 2026-04-24 08:51 | 48.11484 | 16.57208 | 626 ft | 4 kts | 295° |
| 2026-04-24 08:51 | 48.11497 | 16.57166 | 618 ft | 4 kts | 294° |
| 2026-04-24 08:51 | 48.11509 | 16.57124 | 621 ft | 4 kts | 292° |
| 2026-04-24 08:52 | 48.11521 | 16.57081 | 626 ft | 4 kts | 292° |
| 2026-04-24 08:52 | 48.11533 | 16.57038 | 624 ft | 4 kts | 294° |
| 2026-04-24 08:52 | 48.11546 | 16.56996 | 629 ft | 4 kts | 296° |
| 2026-04-24 08:52 | 48.11561 | 16.56956 | 629 ft | 4 kts | 299° |
| 2026-04-24 08:53 | 48.11576 | 16.56916 | 629 ft | 4 kts | 300° |
| 2026-04-24 08:53 | 48.11591 | 16.56876 | 625 ft | 4 kts | 300° |
| 2026-04-24 08:53 | 48.11606 | 16.56835 | 627 ft | 4 kts | 296° |
| 2026-04-24 08:53 | 48.11619 | 16.56793 | 629 ft | 4 kts | 295° |
| 2026-04-24 08:54 | 48.11638 | 16.56775 | 625 ft | 2 kts | 352° |
| 2026-04-24 08:54 | 48.11652 | 16.56780 | 624 ft | 2 kts | 13° |
| 2026-04-24 08:54 | 48.11672 | 16.56791 | 623 ft | 3 kts | 23° |
| 2026-04-24 08:54 | 48.11693 | 16.56805 | 625 ft | 3 kts | 24° |
| 2026-04-24 08:55 | 48.11706 | 16.56814 | 626 ft | 1 kts | 25° |
| 2026-04-24 08:55 | 48.11709 | 16.56817 | 626 ft | 0 kts | 26° |